Flight Track Log - Related Links

Times and Time Zones

All times are in EDT time to prevent confusion due to time zone crossing. See the N662US flight status page for this flight to view local times or setup timezone preferences in your user account.

Time Position Orientation Groundspeed Altitude Reporting Facility
EDT Latitude Longitude Course Direction KTS MPH feet Rate Location/Type
Thu 02:17:17 PM 40.6400 -73.7830 North 2 2  Level FlightAware ADS-B
Thu 02:19:07 PM 40.6400 -73.7840 270° West 2 2 21 Level FlightAware ADS-B
Thu 02:21:00 PM 40.8463 -73.9315 339° North  Level FlightAware Approximate
Thu 02:22:00 PM 40.9556 -74.0111 339° North  Level FlightAware Approximate
Thu 02:23:00 PM 41.0651 -74.0902 327° Northwest  Level FlightAware Approximate
Thu 02:24:00 PM 41.1738 -74.1714 333° Northwest  Level FlightAware Approximate
Thu 02:25:00 PM 41.2786 -74.2620 323° Northwest  Level FlightAware Approximate
Thu 02:26:00 PM 41.3839 -74.3500 North  Level FlightAware Approximate
Thu 02:27:00 PM 41.4524 -74.4777 300° West  Level FlightAware Approximate
Thu 02:28:00 PM 41.5180 -74.6202 297° West  Level FlightAware Approximate
Thu 02:29:00 PM 41.5801 -74.7634 323° Northwest  Level FlightAware Approximate
Thu 02:30:17 PM 40.6350 -73.7830 180° South 16 18  Level FlightAware ADS-B
Thu 02:31:18 PM 40.6340 -73.7810 123° Southeast 23 26 34 Level FlightAware ADS-B
Thu 02:31:59 PM 40.6330 -73.7790 123° Southeast 23 26 35 Level FlightAware ADS-B
Thu 02:32:39 PM 40.6330 -73.7770 90° East 16 18 37 Level FlightAware ADS-B
Thu 02:34:01 PM 40.6320 -73.7750 123° Southeast 9 10 38 Level FlightAware ADS-B
Thu 02:35:15 PM 40.6310 -73.7740 143° Southeast 13 15 41 Level FlightAware ADS-B
Thu 02:35:35 PM 40.6310 -73.7730 90° East 2 2 44 Level FlightAware ADS-B
Thu 02:38:00 PM 40.8915 -73.9721 333° Northwest  Level FlightAware Approximate
Thu 02:39:00 PM 41.0062 -74.0387 327° Northwest  Level FlightAware Approximate
Thu 02:40:00 PM 41.1109 -74.1303 327° Northwest  Level FlightAware Approximate
Thu 02:40:07 PM 40.6300 -73.7720 327° Northwest 2 2  Level FlightAware ADS-B
Thu 02:42:00 PM 40.8348 -73.9257 339° North  Level FlightAware Approximate
Thu 02:43:00 PM 40.9440 -74.0053 339° North  Level FlightAware Approximate
Thu 02:44:00 PM 41.0547 -74.0812 327° Northwest  Level FlightAware Approximate
Thu 02:44:43 PM 40.6300 -73.7710 327° Northwest 2 2  Level FlightAware ADS-B
Thu 02:45:51 PM 40.6290 -73.7710 180° South 9 10 111 Level FlightAware ADS-B
Thu 02:48:00 PM 40.8637 -73.9470 323° Northwest  Level FlightAware Approximate
Thu 02:49:00 PM 40.9753 -74.0210 339° North  Level FlightAware Approximate
Thu 02:49:30 PM 40.6280 -73.7720 339° North 20 23  Level FlightAware ADS-B
Thu 02:50:11 PM 40.6320 -73.7810 300° West 105 121 457 Level FlightAware ADS-B
Thu 02:50:32 PM 40.6380 -73.7920 306° West 155 178 824 Level FlightAware ADS-B
Thu 02:51:02 PM 40.6530 -73.8260 300° West 189 217 700 1,429 Climbing FlightAware ADS-B
Thu 02:51:14 PM 40.6570 -73.8390 292° West 190 219 1,000 1,231 Climbing FlightAware ADS-B
Thu 02:51:41 PM 40.6480 -73.8680 248° West 198 228 1,500 1,050 Climbing FlightAware ADS-B
Thu 02:51:54 PM 40.6380 -73.8770 214° Southwest 212 244 1,700 1,000 Climbing FlightAware ADS-B
Thu 02:52:11 PM 40.6210 -73.8880 206° Southwest 231 266 2,000 1,105 Climbing FlightAware ADS-B
Thu 02:52:32 PM 40.6000 -73.8950 194° South 252 290 2,400 878 Climbing FlightAware ADS-B
Thu 02:52:52 PM 40.5770 -73.8870 165° South 272 313 2,600 1,102 Climbing FlightAware ADS-B
Thu 02:53:21 PM 40.5590 -73.8460 120° Southeast 281 323 3,300 1,385 Climbing FlightAware ADS-B
Thu 02:53:44 PM 40.5620 -73.8060 84° East 290 334 3,800 1,350 Climbing FlightAware ADS-B
Thu 02:54:01 PM 40.5720 -73.7820 61° Northeast 297 342 4,200 2,000 Climbing FlightAware ADS-B
Thu 02:54:26 PM 40.5950 -73.7440 51° Northeast 301 346 5,200 2,291 Climbing FlightAware ADS-B
Thu 02:54:56 PM 40.6240 -73.7020 48° Northeast 306 352 6,300 2,172 Climbing FlightAware ADS-B
Thu 02:55:24 PM 40.6500 -73.6620 49° Northeast 316 364 7,300 2,172 Climbing FlightAware ADS-B
Thu 02:55:54 PM 40.6800 -73.6180 48° Northeast 323 372 8,400 2,182 Climbing FlightAware ADS-B
Thu 02:56:08 PM 40.6936 -73.5974 49° Northeast 325 374 8,900 1,663 Climbing FlightAware ADS-B
Thu 02:57:17 PM 40.7690 -73.5000 44° Northeast 351 404 10,700 1,482 Climbing FlightAware ADS-B
Thu 02:57:33 PM 40.7950 -73.4920 13° North 358 412 11,000 1,067 Climbing FlightAware ADS-B
Thu 02:58:02 PM 40.8390 -73.4980 354° North 372 428 11,500 1,059 Climbing FlightAware ADS-B
Thu 02:58:41 PM 40.9110 -73.5280 343° North 403 464 12,200 1,254 Climbing FlightAware ADS-B
Thu 02:59:09 PM 40.9490 -73.5740 318° Northwest 414 476 12,900 1,739 Climbing FlightAware ADS-B
Thu 02:59:50 PM 40.9990 -73.6580 308° West 419 482 14,200 1,933 Climbing FlightAware ADS-B
Thu 03:00:39 PM 41.0578 -73.7560 309° West 425 489 15,800 1,902 Climbing FlightAware ADS-B
Thu 03:01:12 PM 41.0977 -73.8262 307° West 426 490 16,800 1,015 Climbing FlightAware ADS-B
Thu 03:01:44 PM 41.1363 -73.8929 308° West 427 491 16,900 103 Climbing FlightAware ADS-B
Thu 03:02:10 PM 41.1630 -73.9484 303° West 427 491 16,900  Level FlightAware ADS-B
Thu 03:02:34 PM 41.1851 -74.0063 297° West 424 488 16,900  Level FlightAware ADS-B
Thu 03:03:04 PM 41.2191 -74.0708 305° West 427 491 16,900  Level FlightAware ADS-B
Thu 03:03:35 PM 41.2536 -74.1352 305° West 426 490 16,900  Level FlightAware ADS-B
Thu 03:04:08 PM 41.2908 -74.2059 305° West 427 491 16,900 738 Level FlightAware ADS-B
Thu 03:04:40 PM 41.3273 -74.2753 305° West 432 497 17,700 1,548 Climbing FlightAware ADS-B
Thu 03:05:10 PM 41.3618 -74.3414 305° West 435 501 18,500 1,714 Climbing FlightAware ADS-B
Thu 03:05:50 PM 41.4086 -74.4326 304° West 441 507 19,700 2,308 Climbing FlightAware ADS-B
Thu 03:06:28 PM 41.4509 -74.5125 305° West 421 484 21,500 2,197 Climbing FlightAware ADS-B
Thu 03:07:01 PM 41.4873 -74.5834 304° West 424 488 22,300 1,273 Climbing FlightAware ADS-B
Thu 03:07:34 PM 41.5241 -74.6548 305° West 429 494 22,900 1,143 Climbing FlightAware ADS-B
Thu 03:08:04 PM 41.5587 -74.7229 304° West 434 499 23,500 1,227 Climbing FlightAware ADS-B
Thu 03:08:18 PM 41.5759 -74.7529 307° West 437 503 23,800 706 Climbing FlightAware ADS-B
Thu 03:08:55 PM 41.6348 -74.8142 322° Northwest 450 518 24,100 519 Climbing FlightAware ADS-B
Thu 03:09:39 PM 41.7203 -74.8714 333° Northwest 472 543 24,500 560 Climbing FlightAware ADS-B
Thu 03:10:10 PM 41.7817 -74.9116 334° Northwest 474 545 24,800 507 Climbing FlightAware ADS-B
Thu 03:10:50 PM 41.8643 -74.9623 335° Northwest 474 545 25,100 640 Climbing FlightAware ADS-B
Thu 03:11:25 PM 41.9417 -74.9977 341° North 474 545 25,600 1,019 Climbing FlightAware ADS-B
Thu 03:13:29 PM 42.2210 -75.1170 342° North 510 587 27,800 1,071 Climbing FlightAware ADS-B
Thu 03:14:13 PM 42.3180 -75.1500 346° North 509 586 28,600 1,071 Climbing FlightAware ADS-B
Thu 03:14:53 PM 42.4090 -75.1820 345° North 507 583 29,300 977 Climbing FlightAware ADS-B
Thu 03:15:39 PM 42.5150 -75.2190 346° North 505 581 30,000 494 Climbing FlightAware ADS-B
Thu 03:16:18 PM 42.6030 -75.2500 345° North 503 579 30,000  Level FlightAware ADS-B
Thu 03:16:53 PM 42.6810 -75.2870 341° North 499 574 30,000  Level FlightAware ADS-B
Thu 03:17:33 PM 42.7650 -75.3310 339° North 495 570 30,000  Level FlightAware ADS-B
Thu 03:18:17 PM 42.8580 -75.3860 337° Northwest 492 566 30,000  Level FlightAware ADS-B
Thu 03:18:59 PM 42.9390 -75.4560 328° Northwest 489 563 30,000  Level FlightAware ADS-B
Thu 03:19:43 PM 43.0070 -75.5520 314° West 482 555 30,000  Level FlightAware ADS-B
Thu 03:20:23 PM 43.0690 -75.6400 314° West 480 552 30,000  Level FlightAware ADS-B
Thu 03:21:08 PM 43.1340 -75.7390 312° West 478 550 30,000  Level FlightAware ADS-B
Thu 03:21:47 PM 43.1910 -75.8310 310° West 475 547 30,000  Level FlightAware ADS-B
Thu 03:22:31 PM 43.2540 -75.9310 311° West 473 544 30,000  Level FlightAware ADS-B
Thu 03:23:11 PM 43.3110 -76.0230 310° West 475 547 30,000  Level FlightAware ADS-B
Thu 03:23:55 PM 43.3750 -76.1230 311° West 475 547 30,000  Level FlightAware ADS-B
Thu 03:24:33 PM 43.4290 -76.2100 311° West 476 548 30,000  Level FlightAware ADS-B
Thu 03:25:15 PM 43.4890 -76.3080 310° West 480 552 30,000  Level FlightAware ADS-B
Thu 03:26:56 PM 43.6340 -76.5420 311° West 483 556 30,000  Level FlightAware ADS-B
Thu 03:27:42 PM 43.7010 -76.6500 311° West 483 556 30,000  Level FlightAware ADS-B
Thu 03:28:23 PM 43.7620 -76.7520 310° West 483 556 30,000  Level FlightAware ADS-B
Thu 03:28:53 PM 43.8040 -76.8200 311° West 483 556 30,000  Level FlightAware ADS-B
Thu 03:29:31 PM 43.8600 -76.9090 311° West 487 560 30,000  Level FlightAware ADS-B
Thu 03:30:27 PM 43.9610 -77.0200 322° Northwest 497 572 30,000  Level FlightAware ADS-B
Thu 03:31:05 PM 44.0330 -77.0880 326° Northwest 495 570 30,000  Level FlightAware ADS-B
Thu 03:31:50 PM 44.1140 -77.1650 326° Northwest 493 567 30,000  Level FlightAware ADS-B
Thu 03:32:30 PM 44.1910 -77.2370 326° Northwest 488 562 30,000  Level FlightAware ADS-B
Thu 03:33:15 PM 44.2680 -77.3100 326° Northwest 484 557 30,000  Level FlightAware ADS-B
Thu 03:33:56 PM 44.3440 -77.3830 326° Northwest 480 552 30,000  Level FlightAware ADS-B
Thu 03:34:37 PM 44.4260 -77.4620 325° Northwest 478 550 30,000  Level FlightAware ADS-B
Thu 03:35:21 PM 44.5060 -77.5370 326° Northwest 477 549 30,000  Level FlightAware ADS-B
Thu 03:35:57 PM 44.5740 -77.5980 327° Northwest 478 550 30,000  Level FlightAware ADS-B
Thu 03:36:43 PM 44.6640 -77.6580 335° Northwest 476 548 30,000  Level FlightAware ADS-B
Thu 03:37:27 PM 44.7530 -77.7190 334° Northwest 474 545 30,000  Level FlightAware ADS-B
Thu 03:37:55 PM 44.8030 -77.7530 334° Northwest 475 547 30,000  Level FlightAware ADS-B
Thu 03:38:35 PM 44.8840 -77.8080 334° Northwest 475 547 30,000  Level FlightAware ADS-B
Thu 03:39:15 PM 44.9640 -77.8630 334° Northwest 475 547 30,000  Level FlightAware ADS-B
Thu 03:39:55 PM 45.0420 -77.9230 331° Northwest 475 547 30,000  Level FlightAware ADS-B
Thu 03:40:30 PM 45.1090 -77.9770 330° Northwest 476 548 30,000 375 Level FlightAware ADS-B
Thu 03:41:15 PM 45.1930 -78.0460 330° Northwest 480 552 30,500 733 Climbing FlightAware ADS-B
Thu 03:42:00 PM 45.2750 -78.1230 327° Northwest 480 552 31,100 825 Climbing FlightAware ADS-B
Thu 03:42:35 PM 45.3410 -78.1890 325° Northwest 480 552 31,600 635 Climbing FlightAware ADS-B
Thu 03:43:25 PM 45.4320 -78.2750 326° Northwest 477 549 32,000 267 Climbing FlightAware ADS-B
Thu 03:44:05 PM 45.5070 -78.3460 326° Northwest 474 545 32,000  Level FlightAware ADS-B
Thu 03:44:42 PM 45.5750 -78.4120 326° Northwest 471 542 32,000  Level FlightAware ADS-B
Thu 03:46:47 PM 45.7770 -78.6050 326° Northwest 465 535 32,000  Level FlightAware ADS-B
Thu 03:47:26 PM 45.8700 -78.6950 326° Northwest 464 534 32,000  Level FlightAware ADS-B
Thu 03:48:10 PM 45.9570 -78.7520 336° Northwest 473 544 32,000  Level FlightAware ADS-B
Thu 03:48:54 PM 46.0480 -78.7960 341° North 471 542 32,000  Level FlightAware ADS-B
Thu 03:49:37 PM 46.1320 -78.8480 337° Northwest 464 534 32,000  Level FlightAware ADS-B
Thu 03:50:13 PM 46.1930 -78.9160 322° Northwest 462 532 32,000  Level FlightAware ADS-B
Thu 03:50:53 PM 46.2640 -78.9880 325° Northwest 464 534 32,000  Level FlightAware ADS-B
Thu 03:51:34 PM 46.3350 -79.0580 326° Northwest 466 536 32,000  Level FlightAware ADS-B
Thu 03:52:13 PM 46.4080 -79.1280 327° Northwest 467 537 32,000  Level FlightAware ADS-B
Thu 03:52:57 PM 46.4870 -79.2030 327° Northwest 469 540 32,000  Level FlightAware ADS-B
Thu 03:53:41 PM 46.5650 -79.2830 325° Northwest 468 539 32,000  Level FlightAware ADS-B
Thu 03:54:23 PM 46.6380 -79.3610 324° Northwest 470 541 32,000  Level FlightAware ADS-B
Thu 03:55:01 PM 46.7050 -79.4310 324° Northwest 470 541 32,000  Level FlightAware ADS-B
Thu 03:55:39 PM 46.7720 -79.5000 325° Northwest 467 537 32,000  Level FlightAware ADS-B
Thu 03:56:19 PM 46.8430 -79.5750 324° Northwest 465 535 32,000  Level FlightAware ADS-B
Thu 03:57:03 PM 46.9190 -79.6540 325° Northwest 462 532 32,000  Level FlightAware ADS-B
Thu 03:57:47 PM 46.9970 -79.7360 324° Northwest 461 531 32,000  Level FlightAware ADS-B
Thu 03:58:27 PM 47.0650 -79.8070 325° Northwest 461 531 32,000  Level FlightAware ADS-B
Thu 03:59:07 PM 47.1350 -79.8820 324° Northwest 461 531 32,000  Level FlightAware ADS-B
Thu 03:59:51 PM 47.2090 -79.9610 324° Northwest 461 531 32,000  Level FlightAware ADS-B
Thu 04:00:35 PM 47.2860 -80.0430 324° Northwest 461 531 32,000  Level FlightAware ADS-B
Thu 04:01:15 PM 47.3550 -80.1170 324° Northwest 461 531 32,000  Level FlightAware ADS-B
Thu 04:01:59 PM 47.4310 -80.1980 324° Northwest 460 529 32,000  Level FlightAware ADS-B
Thu 04:02:41 PM 47.5030 -80.2760 324° Northwest 461 531 32,000  Level FlightAware ADS-B
Thu 04:03:17 PM 47.5650 -80.3430 324° Northwest 462 532 32,000  Level FlightAware ADS-B
Thu 04:04:01 PM 47.6410 -80.4260 324° Northwest 462 532 32,000  Level FlightAware ADS-B
Thu 04:04:45 PM 47.7140 -80.5070 323° Northwest 463 533 32,000  Level FlightAware ADS-B
Thu 04:05:23 PM 47.7720 -80.5720 323° Northwest 463 533 32,000  Level FlightAware ADS-B
Thu 04:06:35 PM 47.8770 -80.6890 323° Northwest 463 533 32,000  Level FlightAware ADS-B
Thu 04:07:23 PM 47.9470 -80.7680 323° Northwest 463 533 32,000  Level FlightAware ADS-B
Thu 04:08:36 PM 48.0530 -80.8870 323° Northwest 463 533 32,000  Level FlightAware ADS-B
Thu 04:09:01 PM 48.0890 -80.9280 323° Northwest 463 533 32,000  Level FlightAware ADS-B
Thu 04:10:02 PM 48.1780 -81.0280 323° Northwest 463 533 32,000  Level FlightAware ADS-B
Thu 04:10:39 PM 48.2320 -81.0890 323° Northwest 463 533 32,000  Level FlightAware ADS-B
Thu 04:11:20 PM 48.2910 -81.1570 323° Northwest 463 533 32,000  Level FlightAware ADS-B
Thu 04:11:54 PM 48.3410 -81.2130 323° Northwest 463 533 32,000  Level FlightAware ADS-B
Thu 04:12:31 PM 48.3950 -81.2740 323° Northwest 463 533 32,000  Level FlightAware ADS-B
Thu 04:13:33 PM 48.4850 -81.3760 323° Northwest 463 533 32,000  Level FlightAware ADS-B
Thu 04:14:09 PM 48.5370 -81.4360 323° Northwest 463 533 32,000  Level FlightAware ADS-B
Thu 04:15:02 PM 48.7667 -81.6833 323° Northwest 460 529 32,000  Level Toronto Center
Thu 04:16:02 PM 48.8667 -81.8000 323° Northwest 460 529 32,000  Level Toronto Center
Thu 04:17:02 PM 48.9667 -81.9167 323° Northwest 460 529 32,000  Level Toronto Center
Thu 04:18:02 PM 49.0667 -82.0500 319° Northwest 460 529 32,000  Level Toronto Center
Thu 04:19:02 PM 49.1667 -82.1500 327° Northwest 460 529 32,000  Level Toronto Center
Thu 04:20:02 PM 49.2667 -82.2833 319° Northwest 460 529 32,000  Level Toronto Center
Thu 04:21:03 PM 49.3667 -82.3833 327° Northwest 460 529 32,000  Level Toronto Center
Thu 04:22:02 PM 49.4833 -82.5333 320° Northwest 460 529 32,000  Level Toronto Center
Thu 04:23:02 PM 49.5833 -82.6167 332° Northwest 460 529 32,000  Level Toronto Center
Thu 04:24:02 PM 49.6667 -82.7167 322° Northwest 460 529 32,000  Level Toronto Center
Thu 04:25:02 PM 49.7833 -82.8333 327° Northwest 460 529 32,000  Level Toronto Center
Thu 04:26:02 PM 49.9000 -82.9167 335° Northwest 460 529 32,000  Level Toronto Center
Thu 04:27:02 PM 50.0167 -83.0167 331° Northwest 460 529 32,000  Level Toronto Center
Thu 04:28:02 PM 50.1167 -83.1333 323° Northwest 460 529 32,000  Level Toronto Center
Thu 04:29:02 PM 50.2333 -83.2500 327° Northwest 460 529 32,000  Level Toronto Center
Thu 04:29:40 PM 50.2667 -83.2333 18° North 460 529 32,000  Level Edmonton Center
Thu 04:30:40 PM 50.3667 -83.3500 323° Northwest 460 529 32,000  Level Edmonton Center
Thu 04:31:40 PM 50.4833 -83.4667 328° Northwest 470 541 32,000  Level Edmonton Center
Thu 04:32:40 PM 50.5833 -83.5667 328° Northwest 470 541 32,000  Level Edmonton Center
Thu 04:33:40 PM 50.7000 -83.6833 328° Northwest 470 541 32,000  Level Edmonton Center
Thu 04:34:40 PM 50.8167 -83.7833 332° Northwest 460 529 32,000  Level Edmonton Center
Thu 04:35:40 PM 50.9000 -83.8833 323° Northwest 460 529 32,000  Level Edmonton Center
Thu 04:36:40 PM 51.0333 -84.0167 328° Northwest 460 529 32,000  Level Edmonton Center
Thu 04:37:40 PM 51.1167 -84.1167 323° Northwest 460 529 32,000  Level Edmonton Center
Thu 04:38:40 PM 51.2333 -84.2167 332° Northwest 460 529 32,000  Level Edmonton Center
Thu 04:39:40 PM 51.3333 -84.3333 324° Northwest 460 529 32,000  Level Edmonton Center
Thu 04:40:40 PM 51.4500 -84.4500 328° Northwest 450 518 32,000  Level Edmonton Center
Thu 04:41:40 PM 51.5500 -84.5667 324° Northwest 460 529 32,000  Level Edmonton Center
Thu 04:42:40 PM 51.6667 -84.6833 328° Northwest 460 529 32,000  Level Edmonton Center
Thu 04:43:40 PM 51.7500 -84.8000 319° Northwest 460 529 32,000  Level Edmonton Center
Thu 04:44:40 PM 51.8667 -84.9000 332° Northwest 460 529 32,000  Level Edmonton Center
Thu 04:45:40 PM 51.9667 -85.0167 324° Northwest 460 529 32,000  Level Edmonton Center
Thu 04:46:40 PM 52.0833 -85.1333 328° Northwest 460 529 32,000  Level Edmonton Center
Thu 04:47:40 PM 52.1833 -85.2500 324° Northwest 460 529 32,000  Level Edmonton Center
Thu 04:48:40 PM 52.3000 -85.3667 329° Northwest 460 529 32,000  Level Edmonton Center
Thu 04:49:40 PM 52.4000 -85.4833 325° Northwest 460 529 32,000  Level Edmonton Center
Thu 04:50:40 PM 52.5167 -85.6000 329° Northwest 450 518 32,000  Level Edmonton Center
Thu 04:51:40 PM 52.6167 -85.7000 329° Northwest 450 518 32,000 50 Level Edmonton Center
Thu 04:52:40 PM 52.7167 -85.8333 321° Northwest 450 518 32,100 550 Climbing Edmonton Center
Thu 04:53:40 PM 52.8167 -85.9500 325° Northwest 450 518 33,100 850 Climbing Edmonton Center
Thu 04:54:40 PM 52.9167 -86.0500 329° Northwest 450 518 33,800 450 Climbing Edmonton Center
Thu 04:55:40 PM 53.0333 -86.1667 329° Northwest 450 518 34,000 100 Climbing Edmonton Center
Thu 04:56:40 PM 53.1167 -86.3000 316° Northwest 450 518 34,000  Level Edmonton Center
Thu 04:57:40 PM 53.2333 -86.4167 329° Northwest 440 506 34,000  Level Edmonton Center
Thu 04:58:40 PM 53.3333 -86.5167 329° Northwest 440 506 34,000  Level Edmonton Center
Thu 04:59:40 PM 53.4333 -86.6500 322° Northwest 440 506 34,000  Level Edmonton Center
Thu 05:00:40 PM 53.5333 -86.7833 322° Northwest 440 506 34,000  Level Edmonton Center
Thu 05:01:40 PM 53.6333 -86.8833 329° Northwest 440 506 34,000  Level Edmonton Center
Thu 05:02:40 PM 53.7500 -87.0000 329° Northwest 430 495 34,000  Level Edmonton Center
Thu 05:03:40 PM 53.8333 -87.1167 320° Northwest 430 495 34,000  Level Edmonton Center
Thu 05:04:40 PM 53.9333 -87.2333 326° Northwest 430 495 34,000  Level Edmonton Center
Thu 05:05:40 PM 54.0167 -87.3500 321° Northwest 430 495 34,000  Level Edmonton Center
Thu 05:06:40 PM 54.1333 -87.4833 326° Northwest 420 483 34,000  Level Edmonton Center
Thu 05:07:40 PM 54.2167 -87.5833 325° Northwest 430 495 34,000  Level Edmonton Center
Thu 05:08:40 PM 54.3167 -87.7167 322° Northwest 420 483 34,000  Level Edmonton Center
Thu 05:09:40 PM 54.4167 -87.8333 326° Northwest 430 495 34,000  Level Edmonton Center
Thu 05:10:40 PM 54.5167 -87.9667 322° Northwest 430 495 34,000  Level Edmonton Center
Thu 05:11:40 PM 54.6000 -88.0667 325° Northwest 420 483 34,000  Level Edmonton Center
Thu 05:12:40 PM 54.6833 -88.1833 321° Northwest 420 483 34,000  Level Edmonton Center
Thu 05:13:40 PM 54.8000 -88.3167 327° Northwest 420 483 34,000  Level Edmonton Center
Thu 05:14:40 PM 54.8833 -88.4333 321° Northwest 420 483 34,000  Level Edmonton Center
Thu 05:15:40 PM 54.9833 -88.5667 323° Northwest 420 483 34,000  Level Edmonton Center
Thu 05:16:40 PM 55.0667 -88.6833 321° Northwest 420 483 34,000  Level Edmonton Center
Thu 05:17:40 PM 55.1833 -88.8167 327° Northwest 430 495 34,000  Level Edmonton Center
Thu 05:18:40 PM 55.2833 -88.9333 326° Northwest 430 495 34,000  Level Edmonton Center
Thu 05:19:40 PM 55.3667 -89.0667 318° Northwest 430 495 34,000  Level Edmonton Center
Thu 05:20:40 PM 55.4667 -89.2167 320° Northwest 440 506 34,000  Level Edmonton Center
Thu 05:21:40 PM 55.5667 -89.3167 331° Northwest 440 506 34,000  Level Edmonton Center
Thu 05:22:40 PM 55.6667 -89.4667 320° Northwest 430 495 34,000  Level Edmonton Center
Thu 05:23:40 PM 55.7667 -89.6167 320° Northwest 430 495 34,000  Level Edmonton Center
Thu 05:24:40 PM 55.8500 -89.7333 322° Northwest 430 495 34,000  Level Edmonton Center
Thu 05:25:40 PM 55.9500 -89.8500 327° Northwest 430 495 34,000  Level Edmonton Center
Thu 05:26:40 PM 56.0500 -90.0000 320° Northwest 430 495 34,000  Level Edmonton Center
Thu 05:27:40 PM 56.1500 -90.1000 331° Northwest 430 495 34,000  Level Edmonton Center
Thu 05:28:40 PM 56.2333 -90.2500 315° West 430 495 34,000  Level Edmonton Center
Thu 05:29:40 PM 56.3333 -90.3667 327° Northwest 430 495 34,000  Level Edmonton Center
Thu 05:30:40 PM 56.4333 -90.5167 320° Northwest 430 495 34,000  Level Edmonton Center
Thu 05:31:40 PM 56.5167 -90.6667 315° West 440 506 34,000  Level Edmonton Center
Thu 05:32:40 PM 56.6333 -90.8167 325° Northwest 440 506 34,000  Level Edmonton Center
Thu 05:33:40 PM 56.7167 -90.9500 319° Northwest 440 506 34,000  Level Edmonton Center
Thu 05:34:40 PM 56.8167 -91.0667 327° Northwest 440 506 34,000  Level Edmonton Center
Thu 05:35:40 PM 56.9167 -91.2167 321° Northwest 450 518 34,000  Level Edmonton Center
Thu 05:36:40 PM 57.0167 -91.3667 321° Northwest 450 518 34,000  Level Edmonton Center
Thu 05:37:40 PM 57.1167 -91.5167 321° Northwest 460 529 34,000  Level Edmonton Center
Thu 05:38:40 PM 57.2000 -91.6667 316° Northwest 450 518 34,000  Level Edmonton Center
Thu 05:39:40 PM 57.3167 -91.8333 322° Northwest 470 541 34,000  Level Edmonton Center
Thu 05:40:40 PM 57.4167 -91.9500 328° Northwest 460 529 34,000  Level Edmonton Center
Thu 05:41:40 PM 57.5167 -92.1333 315° West 460 529 34,000  Level Edmonton Center
Thu 05:42:40 PM 57.6167 -92.2667 324° Northwest 470 541 34,000  Level Edmonton Center
Thu 05:43:40 PM 57.7167 -92.4500 316° Northwest 470 541 34,000  Level Edmonton Center
Thu 05:44:40 PM 57.8167 -92.6000 321° Northwest 470 541 34,000  Level Edmonton Center
Thu 05:45:40 PM 57.9167 -92.7667 319° Northwest 470 541 34,000  Level Edmonton Center
Thu 05:46:40 PM 58.0167 -92.9000 325° Northwest 470 541 34,000  Level Edmonton Center
Thu 05:47:40 PM 58.1333 -93.0833 320° Northwest 470 541 34,000  Level Edmonton Center
Thu 05:48:40 PM 58.2000 -93.2167 314° West 460 529 34,000  Level Edmonton Center
Thu 05:49:40 PM 58.3000 -93.3833 319° Northwest 470 541 34,000  Level Edmonton Center
Thu 05:50:40 PM 58.4333 -93.5667 324° Northwest 470 541 34,000  Level Edmonton Center
Thu 05:51:40 PM 58.5333 -93.7333 319° Northwest 490 564 34,000  Level Edmonton Center
Thu 05:52:40 PM 58.6333 -93.9000 319° Northwest 480 552 34,000  Level Edmonton Center
Thu 05:54:40 PM 58.8000 -94.2833 310° West 470 541 34,000  Level Edmonton Center
Thu 05:55:40 PM 58.8667 -94.4500 308° West 480 552 34,000  Level Edmonton Center
Thu 05:56:40 PM 58.9500 -94.6667 307° West 470 541 34,000  Level Edmonton Center
Thu 05:57:40 PM 59.0333 -94.8667 309° West 470 541 34,000  Level Edmonton Center
Thu 05:58:40 PM 59.1167 -95.0833 307° West 470 541 34,000  Level Edmonton Center
Thu 05:59:40 PM 59.1833 -95.2833 303° West 470 541 34,000  Level Edmonton Center
Thu 06:00:40 PM 59.2667 -95.5000 307° West 470 541 34,000  Level Edmonton Center
Thu 06:01:40 PM 59.3500 -95.7167 307° West 480 552 34,000  Level Edmonton Center
Thu 06:02:40 PM 59.4167 -95.9333 301° West 480 552 34,000  Level Edmonton Center
Thu 06:03:40 PM 59.5000 -96.1333 309° West 460 529 34,000  Level Edmonton Center
Thu 06:05:00 PM 59.5749 -96.4544 295° West  Level FlightAware Approximate
Thu 06:12:00 PM 59.9549 -98.1629 295° West  Level FlightAware Approximate
Thu 06:13:00 PM 60.0073 -98.4102 293° West  Level FlightAware Approximate
Thu 06:14:00 PM 60.0593 -98.6582 293° West  Level FlightAware Approximate
Thu 06:15:00 PM 60.1109 -98.9070 293° West  Level FlightAware Approximate
Thu 06:16:00 PM 60.1619 -99.1566 292° West  Level FlightAware Approximate
Thu 06:16:42 PM 60.4833 -99.0667 291° West 430 495 34,000  Level Edmonton Center
Thu 06:17:00 PM 60.2125 -99.4069 292° West  Level FlightAware Approximate
Thu 06:17:42 PM 60.5667 -99.3167 304° West 480 552 34,000  Level Edmonton Center
Thu 06:18:00 PM 60.2627 -99.6581 292° West  Level FlightAware Approximate
Thu 06:18:42 PM 60.6500 -99.5500 306° West 480 552 34,000  Level Edmonton Center
Thu 06:19:00 PM 60.3123 -99.9099 292° West  Level FlightAware Approximate
Thu 06:19:42 PM 60.7000 -99.7833 294° West 480 552 34,000  Level Edmonton Center
Thu 06:20:00 PM 60.3615 -100.1626 292° West  Level FlightAware Approximate
Thu 06:20:42 PM 60.7833 -100.0167 306° West 480 552 34,000  Level Edmonton Center
Thu 06:21:00 PM 60.4102 -100.4160 291° West  Level FlightAware Approximate
Thu 06:21:42 PM 60.8667 -100.2500 306° West 480 552 34,000  Level Edmonton Center
Thu 06:22:00 PM 60.4584 -100.6702 291° West  Level FlightAware Approximate
Thu 06:22:42 PM 60.9333 -100.4833 301° West 480 552 34,000  Level Edmonton Center
Thu 06:23:42 PM 61.0000 -100.7167 301° West 480 552 34,000  Level Edmonton Center
Thu 06:24:42 PM 61.0667 -100.9500 301° West 480 552 34,000  Level Edmonton Center
Thu 06:25:42 PM 61.1500 -101.2000 305° West 480 552 34,000  Level Edmonton Center
Thu 06:26:42 PM 61.2000 -101.4333 294° West 480 552 34,000  Level Edmonton Center
Thu 06:27:42 PM 61.2833 -101.7000 303° West 480 552 34,000  Level Edmonton Center
Thu 06:28:42 PM 61.3500 -101.9500 299° West 490 564 34,000  Level Edmonton Center
Thu 06:29:42 PM 61.4167 -102.1833 301° West 490 564 34,000  Level Edmonton Center
Thu 06:30:42 PM 61.4833 -102.4667 296° West 480 552 34,000  Level Edmonton Center
Thu 06:31:42 PM 61.5500 -102.7167 299° West 490 564 34,000  Level Edmonton Center
Thu 06:32:42 PM 61.6167 -102.9500 301° West 480 552 34,000  Level Edmonton Center
Thu 06:33:42 PM 61.6833 -103.2000 299° West 480 552 34,000  Level Edmonton Center
Thu 06:34:42 PM 61.7500 -103.4500 299° West 480 552 34,000  Level Edmonton Center
Thu 06:35:42 PM 61.8167 -103.7000 300° West 490 564 34,000  Level Edmonton Center
Thu 06:36:42 PM 61.8833 -103.9500 300° West 480 552 34,000  Level Edmonton Center
Thu 06:37:42 PM 61.9333 -104.2000 293° West 490 564 34,000  Level Edmonton Center
Thu 06:38:42 PM 62.0167 -104.4500 305° West 480 552 34,000  Level Edmonton Center
Thu 06:39:42 PM 62.0833 -104.7333 297° West 480 552 34,000  Level Edmonton Center
Thu 06:40:42 PM 62.1333 -105.0000 292° West 480 552 34,000  Level Edmonton Center
Thu 06:41:42 PM 62.2000 -105.2500 300° West 480 552 34,000  Level Edmonton Center
Thu 06:42:42 PM 62.2667 -105.5333 297° West 480 552 34,000  Level Edmonton Center
Thu 06:43:42 PM 62.3333 -105.8000 298° West 480 552 34,000  Level Edmonton Center
Thu 06:44:42 PM 62.3833 -106.0500 293° West 490 564 34,000  Level Edmonton Center
Thu 06:45:42 PM 62.4500 -106.3167 298° West 480 552 34,000  Level Edmonton Center
Thu 06:46:42 PM 62.5167 -106.5667 300° West 480 552 34,000  Level Edmonton Center
Thu 06:47:42 PM 62.5667 -106.8333 292° West 480 552 34,000  Level Edmonton Center
Thu 06:48:42 PM 62.6167 -107.1000 292° West 470 541 34,000  Level Edmonton Center
Thu 06:49:42 PM 62.6833 -107.3167 304° West 470 541 34,000  Level Edmonton Center
Thu 06:50:42 PM 62.7333 -107.5833 292° West 470 541 34,000  Level Edmonton Center
Thu 06:51:42 PM 62.8000 -107.8500 299° West 480 552 34,000  Level Edmonton Center
Thu 06:52:42 PM 62.8333 -108.1167 285° West 470 541 34,000  Level Edmonton Center
Thu 06:53:42 PM 62.9000 -108.3833 299° West 470 541 34,000  Level Edmonton Center
Thu 06:54:42 PM 62.9667 -108.6500 299° West 480 552 34,000  Level Edmonton Center
Thu 06:55:42 PM 63.0167 -108.9167 293° West 480 552 34,000  Level Edmonton Center
Thu 06:56:42 PM 63.0833 -109.2333 295° West 480 552 34,000  Level Edmonton Center
Thu 06:57:42 PM 63.1333 -109.5000 293° West 480 552 34,000  Level Edmonton Center
Thu 06:58:42 PM 63.1833 -109.7667 293° West 470 541 34,000  Level Edmonton Center
Thu 06:59:42 PM 63.2333 -110.0333 293° West 470 541 34,000  Level Edmonton Center
Thu 07:00:42 PM 63.2833 -110.3167 292° West 480 552 34,000  Level Edmonton Center
Thu 07:01:42 PM 63.3500 -110.5833 299° West 480 552 34,000  Level Edmonton Center
Thu 07:02:42 PM 63.3833 -110.8667 285° West 480 552 34,000  Level Edmonton Center
Thu 07:03:42 PM 63.4333 -111.1500 292° West 480 552 34,000  Level Edmonton Center
Thu 07:04:42 PM 63.4833 -111.4167 293° West 480 552 34,000  Level Edmonton Center
Thu 07:05:42 PM 63.5333 -111.7000 292° West 480 552 34,000  Level Edmonton Center
Thu 07:06:42 PM 63.5833 -111.9833 292° West 480 552 34,000  Level Edmonton Center
Thu 07:07:42 PM 63.6500 -112.2667 298° West 480 552 34,000  Level Edmonton Center
Thu 07:08:42 PM 63.6833 -112.5333 286° West 470 541 34,000  Level Edmonton Center
Thu 07:09:42 PM 63.7333 -112.8167 292° West 480 552 34,000  Level Edmonton Center
Thu 07:10:42 PM 63.7833 -113.1000 292° West 480 552 34,000  Level Edmonton Center
Thu 07:11:42 PM 63.8167 -113.3833 285° West 480 552 34,000  Level Edmonton Center
Thu 07:12:42 PM 63.8667 -113.6833 291° West 480 552 34,000  Level Edmonton Center
Thu 07:13:42 PM 63.9333 -113.9667 298° West 480 552 34,000  Level Edmonton Center
Thu 07:14:42 PM 63.9500 -114.2833 277° West 480 552 34,000  Level Edmonton Center
Thu 07:15:42 PM 64.0167 -114.5333 301° West 480 552 34,000  Level Edmonton Center
Thu 07:16:42 PM 64.0500 -114.8667 283° West 480 552 34,000  Level Edmonton Center
Thu 07:17:42 PM 64.0833 -115.1500 285° West 480 552 34,000  Level Edmonton Center
Thu 07:18:42 PM 64.1333 -115.4500 291° West 480 552 34,000  Level Edmonton Center
Thu 07:19:42 PM 64.1833 -115.7333 292° West 470 541 34,000  Level Edmonton Center
Thu 07:20:42 PM 64.2167 -116.0167 285° West 470 541 34,000  Level Edmonton Center
Thu 07:21:42 PM 64.2667 -116.3167 291° West 470 541 34,000  Level Edmonton Center
Thu 07:22:42 PM 64.3000 -116.6167 284° West 470 541 34,000  Level Edmonton Center
Thu 07:23:42 PM 64.3333 -116.9000 285° West 470 541 34,000  Level Edmonton Center
Thu 07:24:42 PM 64.3833 -117.2000 291° West 470 541 34,000  Level Edmonton Center
Thu 07:25:42 PM 64.4000 -117.5000 277° West 470 541 34,000  Level Edmonton Center
Thu 07:26:42 PM 64.4500 -117.7500 295° West 460 529 34,000  Level Edmonton Center
Thu 07:27:42 PM 64.4833 -118.1000 283° West 460 529 34,000  Level Edmonton Center
Thu 07:28:42 PM 64.5167 -118.3500 287° West 460 529 34,000  Level Edmonton Center
Thu 07:29:42 PM 64.5667 -118.6500 291° West 460 529 34,000  Level Edmonton Center
Thu 07:30:42 PM 64.5833 -118.9500 278° West 460 529 34,000  Level Edmonton Center
Thu 07:31:42 PM 64.6333 -119.2500 291° West 460 529 34,000  Level Edmonton Center
Thu 07:32:42 PM 64.6500 -119.5500 278° West 460 529 34,000  Level Edmonton Center
Thu 07:33:42 PM 64.7000 -119.8167 294° West 460 529 34,000  Level Edmonton Center
Thu 07:34:42 PM 64.7167 -120.1000 278° West 460 529 34,000  Level Edmonton Center
Thu 07:35:42 PM 64.7500 -120.4167 284° West 460 529 34,000  Level Edmonton Center
Thu 07:36:42 PM 64.7667 -120.7167 278° West 460 529 34,000  Level Edmonton Center
Thu 07:37:42 PM 64.8167 -121.0167 292° West 460 529 34,000  Level Edmonton Center
Thu 07:39:00 PM 64.7939 -121.4221 263° West  Level FlightAware Approximate
Thu 07:46:00 PM 64.9258 -123.5981 287° West  Level FlightAware Approximate
Thu 07:47:00 PM 64.9607 -123.9033 285° West  Level FlightAware Approximate
Thu 07:48:00 PM 64.9951 -124.2093 285° West  Level FlightAware Approximate
Thu 07:49:00 PM 65.0288 -124.5161 285° West  Level FlightAware Approximate
Thu 07:50:00 PM 65.0619 -124.8236 284° West  Level FlightAware Approximate
Thu 07:51:00 PM 65.0943 -125.1319 284° West  Level FlightAware Approximate
Thu 07:52:00 PM 65.1261 -125.4409 284° West  Level FlightAware Approximate
Thu 07:53:00 PM 65.1573 -125.7507 284° West  Level FlightAware Approximate
Thu 07:54:00 PM 65.1879 -126.0612 283° West  Level FlightAware Approximate
Thu 07:55:00 PM 65.2178 -126.3724 283° West  Level FlightAware Approximate
Thu 07:56:00 PM 65.2470 -126.6843 283° West  Level FlightAware Approximate
Thu 07:57:00 PM 65.2751 -126.9972 282° West  Level FlightAware Approximate
Thu 07:58:00 PM 65.3025 -127.3107 282° West  Level FlightAware Approximate
Thu 07:59:00 PM 65.3292 -127.6249 282° West  Level FlightAware Approximate
Thu 08:00:00 PM 65.3553 -127.9397 281° West  Level FlightAware Approximate
Thu 08:01:00 PM 65.3807 -128.2551 281° West  Level FlightAware Approximate
Thu 08:02:00 PM 65.4055 -128.5711 281° West  Level FlightAware Approximate
Thu 08:03:00 PM 65.4277 -128.8885 279° West  Level FlightAware Approximate
Thu 08:04:00 PM 65.4476 -129.2071 279° West  Level FlightAware Approximate
Thu 08:05:00 PM 65.4669 -129.5261 278° West  Level FlightAware Approximate
Thu 08:06:00 PM 65.4854 -129.8456 278° West  Level FlightAware Approximate
Thu 08:07:00 PM 65.5033 -130.1655 278° West  Level FlightAware Approximate
Thu 08:08:00 PM 65.5223 -130.4856 278° West  Level FlightAware Approximate
Thu 08:09:00 PM 65.5406 -130.8062 278° West  Level FlightAware Approximate
Thu 08:10:00 PM 65.5583 -131.1272 278° West  Level FlightAware Approximate
Thu 08:11:00 PM 65.5753 -131.4486 277° West  Level FlightAware Approximate
Thu 08:12:00 PM 65.5916 -131.7705 277° West  Level FlightAware Approximate
Thu 08:13:00 PM 65.6072 -132.0927 277° West  Level FlightAware Approximate
Thu 08:14:00 PM 65.6221 -132.4154 277° West  Level FlightAware Approximate
Thu 08:15:00 PM 65.6364 -132.7384 276° West  Level FlightAware Approximate
Thu 08:16:00 PM 65.6500 -133.0617 276° West  Level FlightAware Approximate
Thu 08:17:00 PM 65.6628 -133.3854 276° West  Level FlightAware Approximate
Thu 08:18:00 PM 65.6750 -133.7093 275° West  Level FlightAware Approximate
Thu 08:19:00 PM 65.6865 -134.0336 275° West  Level FlightAware Approximate
Thu 08:20:00 PM 65.6974 -134.3582 275° West  Level FlightAware Approximate
Thu 08:21:00 PM 65.7075 -134.6830 274° West  Level FlightAware Approximate
Thu 08:22:00 PM 65.7169 -135.0081 274° West  Level FlightAware Approximate
Thu 08:23:00 PM 65.7257 -135.3334 274° West  Level FlightAware Approximate
Thu 08:24:00 PM 65.7337 -135.6589 274° West  Level FlightAware Approximate
Thu 08:25:00 PM 65.7411 -135.9846 273° West  Level FlightAware Approximate
Thu 08:26:00 PM 65.7477 -136.3105 273° West  Level FlightAware Approximate
Thu 08:27:00 PM 65.7537 -136.6365 273° West  Level FlightAware Approximate
Thu 08:28:00 PM 65.7590 -136.9627 272° West  Level FlightAware Approximate
Thu 08:29:00 PM 65.7636 -137.2890 272° West  Level FlightAware Approximate
Thu 08:30:00 PM 65.7674 -137.6154 272° West  Level FlightAware Approximate
Thu 08:31:00 PM 65.7706 -137.9419 272° West  Level FlightAware Approximate
Thu 08:31:00 PM 65.7667 -137.2833 270° West 430 495 34,000  Level Anchorage Center
Thu 08:32:00 PM 65.7731 -138.2684 271° West  Level FlightAware Approximate
Thu 08:32:00 PM 65.7667 -137.5667 270° West 430 495 34,000  Level Anchorage Center
Thu 08:33:00 PM 65.7749 -138.5951 271° West  Level FlightAware Approximate
Thu 08:33:01 PM 65.7667 -137.8500 270° West 430 495 34,000  Level Anchorage Center
Thu 08:34:00 PM 65.7760 -138.9217 271° West  Level FlightAware Approximate
Thu 08:34:01 PM 65.7667 -138.1500 270° West 430 495 34,000  Level Anchorage Center
Thu 08:35:00 PM 65.7764 -139.2484 270° West  Level FlightAware Approximate
Thu 08:35:01 PM 65.7667 -138.4500 270° West 440 506 34,000  Level Anchorage Center
Thu 08:36:00 PM 65.7761 -139.5751 270° West  Level FlightAware Approximate
Thu 08:36:02 PM 65.7667 -138.7333 270° West 430 495 34,000  Level Anchorage Center
Thu 08:37:02 PM 65.7833 -139.0167 278° West 420 483 34,000  Level Anchorage Center
Thu 08:38:02 PM 65.7667 -139.3000 262° West 420 483 34,000  Level Anchorage Center
Thu 08:39:03 PM 65.7833 -139.5833 278° West 420 483 34,000  Level Anchorage Center
Thu 08:40:03 PM 65.7833 -139.8667 270° West 420 483 34,000  Level Anchorage Center
Thu 08:41:03 PM 65.7667 -140.1500 262° West 430 495 34,000  Level Anchorage Center
Thu 08:42:04 PM 65.7667 -140.4500 270° West 430 495 34,000  Level Anchorage Center
Thu 08:43:04 PM 65.7667 -140.7333 270° West 420 483 34,000  Level Anchorage Center
Thu 08:44:05 PM 65.7667 -141.0333 270° West 440 506 34,000  Level Anchorage Center
Thu 08:45:05 PM 65.7667 -141.3167 270° West 440 506 34,000  Level Anchorage Center
Thu 08:46:05 PM 65.7833 -141.6000 278° West 430 495 34,000  Level Anchorage Center
Thu 08:47:05 PM 65.7833 -141.9000 270° West 430 495 34,000  Level Anchorage Center
Thu 08:48:06 PM 65.8000 -142.1833 278° West 440 506 34,000  Level Anchorage Center
Thu 08:49:06 PM 65.8000 -142.4833 270° West 430 495 34,000  Level Anchorage Center
Thu 08:50:06 PM 65.8000 -142.7833 270° West 440 506 34,000  Level Anchorage Center
Thu 08:51:07 PM 65.8167 -143.0833 278° West 440 506 34,000  Level Anchorage Center
Thu 08:52:07 PM 65.8167 -143.3833 270° West 440 506 34,000  Level Anchorage Center
Thu 08:53:07 PM 65.8167 -143.6833 270° West 440 506 34,000  Level Anchorage Center
Thu 08:54:08 PM 65.8167 -143.9833 270° West 440 506 34,000  Level Anchorage Center
Thu 08:55:08 PM 65.8167 -144.2833 270° West 440 506 34,000  Level Anchorage Center
Thu 08:56:08 PM 65.8167 -144.5833 270° West 440 506 34,000  Level Anchorage Center
Thu 08:57:09 PM 65.8167 -144.8833 270° West 450 518 34,000  Level Anchorage Center
Thu 08:58:09 PM 65.8167 -145.1833 270° West 450 518 34,000  Level Anchorage Center
Thu 08:59:09 PM 65.8167 -145.4833 270° West 440 506 34,000  Level Anchorage Center
Thu 09:00:10 PM 65.8167 -145.8000 270° West 440 506 34,000  Level Anchorage Center
Thu 09:01:10 PM 65.8167 -146.1000 270° West 440 506 34,000  Level Anchorage Center
Thu 09:02:10 PM 65.8167 -146.4000 270° West 450 518 34,000  Level Anchorage Center
Thu 09:03:11 PM 65.8167 -146.7000 270° West 450 518 34,000  Level Anchorage Center
Thu 09:04:11 PM 65.8167 -147.0000 270° West 440 506 34,000  Level Anchorage Center
Thu 09:05:11 PM 65.8167 -147.3000 270° West 440 506 34,000  Level Anchorage Center
Thu 09:06:12 PM 65.8000 -147.5833 262° West 440 506 34,000  Level Anchorage Center
Thu 09:07:12 PM 65.8000 -147.8833 270° West 440 506 34,000  Level Anchorage Center
Thu 09:08:13 PM 65.8000 -148.2333 270° West 440 506 34,000  Level Anchorage Center
Thu 09:09:13 PM 65.7833 -148.5333 262° West 440 506 34,000  Level Anchorage Center
Thu 09:10:13 PM 65.7833 -148.8333 270° West 440 506 34,000  Level Anchorage Center
Thu 09:11:13 PM 65.7833 -149.1333 270° West 440 506 34,000  Level Anchorage Center
Thu 09:12:14 PM 65.7667 -149.4333 262° West 440 506 34,000  Level Anchorage Center
Thu 09:13:14 PM 65.7667 -149.7333 270° West 440 506 34,000  Level Anchorage Center
Thu 09:14:14 PM 65.7500 -150.0333 262° West 440 506 34,000  Level Anchorage Center
Thu 09:15:15 PM 65.7500 -150.3333 270° West 450 518 34,000  Level Anchorage Center
Thu 09:16:15 PM 65.7333 -150.6333 262° West 450 518 34,000  Level Anchorage Center
Thu 09:17:15 PM 65.7167 -150.9500 263° West 450 518 34,000  Level Anchorage Center
Thu 09:18:16 PM 65.7167 -151.2167 270° West 440 506 34,000  Level Anchorage Center
Thu 09:19:16 PM 65.7000 -151.5167 262° West 450 518 34,000  Level Anchorage Center
Thu 09:20:16 PM 65.6833 -151.8167 262° West 450 518 34,000  Level Anchorage Center
Thu 09:21:17 PM 65.6667 -152.1167 262° West 450 518 34,000  Level Anchorage Center
Thu 09:22:17 PM 65.6667 -152.4333 270° West 450 518 34,000  Level Anchorage Center
Thu 09:23:17 PM 65.6500 -152.7333 262° West 460 529 34,000  Level Anchorage Center
Thu 09:24:18 PM 65.6333 -153.0500 263° West 460 529 34,000  Level Anchorage Center
Thu 09:25:18 PM 65.6167 -153.3500 262° West 460 529 34,000  Level Anchorage Center
Thu 09:26:18 PM 65.6000 -153.6667 263° West 460 529 34,000  Level Anchorage Center
Thu 09:27:19 PM 65.5833 -153.9833 263° West 460 529 34,000  Level Anchorage Center
Thu 09:28:19 PM 65.5667 -154.2833 262° West 460 529 34,000  Level Anchorage Center
Thu 09:29:20 PM 65.5333 -154.6000 256° West 470 541 34,000  Level Anchorage Center
Thu 09:30:20 PM 65.5167 -154.9167 263° West 460 529 34,000  Level Anchorage Center
Thu 09:31:20 PM 65.5000 -155.2167 263° West 460 529 34,000  Level Anchorage Center
Thu 09:32:21 PM 65.4833 -155.5333 263° West 460 529 34,000  Level Anchorage Center
Thu 09:33:21 PM 65.4667 -155.8500 263° West 470 541 34,000  Level Anchorage Center
Thu 09:34:21 PM 65.4333 -156.1667 256° West 470 541 34,000  Level Anchorage Center
Thu 09:35:21 PM 65.4167 -156.4833 263° West 470 541 34,000  Level Anchorage Center
Thu 09:36:21 PM 65.3833 -156.7833 255° West 470 541 34,000  Level Anchorage Center
Thu 09:37:22 PM 65.3667 -157.1000 263° West 480 552 34,000  Level Anchorage Center
Thu 09:38:22 PM 65.3333 -157.4167 256° West 480 552 34,000  Level Anchorage Center
Thu 09:39:22 PM 65.3167 -157.7333 263° West 470 541 34,000  Level Anchorage Center
Thu 09:40:23 PM 65.2833 -158.0500 256° West 480 552 34,000  Level Anchorage Center
Thu 09:41:23 PM 65.2500 -158.4167 258° West 490 564 34,000  Level Anchorage Center
Thu 09:42:24 PM 65.2333 -158.7333 263° West 470 541 34,000 397 Level Anchorage Center
Thu 09:43:24 PM 65.2000 -159.0333 255° West 480 552 34,800 1,000 Climbing Anchorage Center
Thu 09:44:24 PM 65.1667 -159.3500 256° West 480 552 36,000 595 Climbing Anchorage Center
Thu 09:45:25 PM 65.1333 -159.6667 256° West 480 552 36,000  Level Anchorage Center
Thu 09:46:25 PM 65.1167 -159.9500 262° West 470 541 36,000  Level Anchorage Center
Thu 09:47:25 PM 65.0833 -160.2667 256° West 470 541 36,000  Level Anchorage Center
Thu 09:48:26 PM 65.0500 -160.5500 255° West 460 529 36,000  Level Anchorage Center
Thu 09:49:26 PM 65.0167 -160.8667 256° West 470 541 36,000  Level Anchorage Center
Thu 09:50:26 PM 64.9833 -161.1833 256° West 470 541 36,000  Level Anchorage Center
Thu 09:51:27 PM 64.9500 -161.4833 255° West 480 552 36,000  Level Anchorage Center
Thu 09:52:27 PM 64.9167 -161.7833 255° West 470 541 36,000  Level Anchorage Center
Thu 09:53:27 PM 64.8833 -162.0833 255° West 470 541 36,000  Level Anchorage Center
Thu 09:54:28 PM 64.8500 -162.3833 255° West 470 541 36,000  Level Anchorage Center
Thu 09:55:28 PM 64.8167 -162.6833 255° West 480 552 36,000  Level Anchorage Center
Thu 09:56:29 PM 64.7667 -162.9833 249° West 470 541 36,000  Level Anchorage Center
Thu 09:57:29 PM 64.7333 -163.2833 256° West 470 541 36,000  Level Anchorage Center
Thu 09:58:29 PM 64.7000 -163.5833 256° West 460 529 36,000  Level Anchorage Center
Thu 09:59:29 PM 64.6667 -163.8667 255° West 460 529 36,000  Level Anchorage Center
Thu 10:00:29 PM 64.6167 -164.1667 249° West 480 552 36,000  Level Anchorage Center
Thu 10:01:30 PM 64.5833 -164.4667 256° West 470 541 36,000  Level Anchorage Center
Thu 10:02:30 PM 64.5500 -164.7500 255° West 470 541 36,000  Level Anchorage Center
Thu 10:03:30 PM 64.5000 -165.0500 249° West 460 529 36,000  Level Anchorage Center
Thu 10:04:31 PM 64.4500 -165.3167 247° West 460 529 36,000  Level Anchorage Center
Thu 10:05:31 PM 64.3833 -165.5833 240° Southwest 470 541 36,000  Level Anchorage Center
Thu 10:06:32 PM 64.3167 -165.8500 240° Southwest 470 541 36,000  Level Anchorage Center
Thu 10:07:32 PM 64.2500 -166.1167 240° Southwest 480 552 36,000  Level Anchorage Center
Thu 10:08:32 PM 64.1833 -166.3667 239° Southwest 480 552 36,000  Level Anchorage Center
Thu 10:09:33 PM 64.1000 -166.6333 234° Southwest 480 552 36,000  Level Anchorage Center
Thu 10:10:33 PM 64.0333 -166.9000 240° Southwest 470 541 36,000  Level Anchorage Center
Thu 10:11:33 PM 63.9667 -167.1500 239° Southwest 470 541 36,000  Level Anchorage Center
Thu 10:12:34 PM 63.9000 -167.4000 239° Southwest 480 552 36,000  Level Anchorage Center
Thu 10:13:34 PM 63.8167 -167.6667 235° Southwest 470 541 36,000  Level Anchorage Center
Thu 10:14:34 PM 63.7500 -167.9167 239° Southwest 480 552 36,000  Level Anchorage Center
Thu 10:15:35 PM 63.6833 -168.1667 239° Southwest 470 541 36,000  Level Anchorage Center
Thu 10:16:35 PM 63.6000 -168.4167 233° Southwest 480 552 36,000  Level Anchorage Center
Thu 10:17:40 PM 63.5333 -168.6667 239° Southwest 470 541 36,000  Level Anchorage Center
Thu 10:18:40 PM 63.4667 -168.9167 239° Southwest 470 541 36,000  Level Anchorage Center
Thu 10:19:40 PM 63.4000 -169.1500 238° Southwest 460 529 36,000  Level Anchorage Center
Thu 10:20:40 PM 63.3167 -169.4000 233° Southwest 470 541 36,000  Level Anchorage Center
Thu 10:21:40 PM 63.2500 -169.6333 238° Southwest 470 541 36,000  Level Anchorage Center
Thu 10:22:40 PM 63.1667 -169.8667 232° Southwest 470 541 36,000  Level Anchorage Center
Thu 10:23:40 PM 63.1000 -170.1167 240° Southwest 460 529 36,000  Level Anchorage Center
Thu 10:24:40 PM 63.0167 -170.3500 232° Southwest 470 541 36,000  Level Anchorage Center
Thu 10:25:40 PM 62.9500 -170.5833 238° Southwest 460 529 36,000  Level Anchorage Center
Thu 10:26:41 PM 62.8667 -170.8333 234° Southwest 470 541 36,000  Level Anchorage Center
Thu 10:27:41 PM 62.8000 -171.0667 238° Southwest 470 541 36,000  Level Anchorage Center
Thu 10:28:41 PM 62.7167 -171.3000 232° Southwest 480 552 36,000  Level Anchorage Center
Thu 10:29:41 PM 62.6333 -171.5167 230° Southwest 460 529 36,000  Level Anchorage Center
Thu 10:30:41 PM 62.5667 -171.7500 238° Southwest 480 552 36,000  Level Anchorage Center
Thu 10:31:41 PM 62.4833 -171.9833 232° Southwest 460 529 36,000  Level Anchorage Center
Thu 10:32:41 PM 62.4000 -172.2167 232° Southwest 470 541 36,000  Level Anchorage Center
Thu 10:33:41 PM 62.3167 -172.4500 233° Southwest 480 552 36,000  Level Anchorage Center
Thu 10:34:41 PM 62.2500 -172.6667 237° Southwest 470 541 36,000  Level Anchorage Center
Thu 10:35:41 PM 62.1667 -172.9000 233° Southwest 470 541 36,000  Level Anchorage Center
Thu 10:36:41 PM 62.0833 -173.1167 231° Southwest 480 552 36,000  Level Anchorage Center
Thu 10:37:41 PM 62.0000 -173.3500 233° Southwest 470 541 36,000  Level Anchorage Center
Thu 10:38:41 PM 61.9167 -173.5667 231° Southwest 480 552 36,000  Level Anchorage Center
Thu 10:39:42 PM 61.8333 -173.8000 233° Southwest 490 564 36,000  Level Anchorage Center
Thu 10:40:41 PM 61.7500 -174.0167 231° Southwest 470 541 36,000  Level Anchorage Center
Thu 10:41:42 PM 61.6667 -174.2333 231° Southwest 480 552 36,000  Level Anchorage Center
Thu 10:42:42 PM 61.6000 -174.4667 239° Southwest 470 541 36,000  Level Anchorage Center
Thu 10:45:00 PM 61.4863 -174.7437 230° Southwest  Level FlightAware Approximate
Thu 10:51:49 PM 60.8167 -176.4333 230° Southwest 487 560 36,000  Level Anchorage Center
Thu 10:52:00 PM 60.8915 -176.2167 231° Southwest  Level FlightAware Approximate
Thu 10:53:00 PM 60.8062 -176.4242 230° Southwest  Level FlightAware Approximate
Thu 10:54:00 PM 60.7205 -176.6306 230° Southwest  Level FlightAware Approximate
Thu 10:55:00 PM 60.6345 -176.8358 230° Southwest  Level FlightAware Approximate
Thu 10:56:00 PM 60.5481 -177.0400 229° Southwest  Level FlightAware Approximate
Thu 10:57:00 PM 60.4615 -177.2431 229° Southwest  Level FlightAware Approximate
Thu 10:58:00 PM 60.2891 -177.6939 229° Southwest 487 560 36,000  Level FlightAware Transoceanic
Thu 10:58:46 PM 60.2000 -177.9000 230° Southwest 503 579 36,000  Level Anchorage Center
Thu 10:59:00 PM 60.2000 -177.9000 230° Southwest 487 560 36,000  Level FlightAware Transoceanic
Thu 11:00:00 PM 60.1046 -178.1267 230° Southwest 487 560 36,000  Level FlightAware Transoceanic
Thu 11:01:00 PM 60.0089 -178.3521 230° Southwest 487 560 36,000  Level FlightAware Transoceanic
Thu 11:02:00 PM 59.9127 -178.5762 229° Southwest 487 560 36,000  Level FlightAware Transoceanic
Thu 11:03:00 PM 59.8162 -178.7991 229° Southwest 487 560 36,000  Level FlightAware Transoceanic
Thu 11:04:00 PM 59.7193 -179.0206 229° Southwest 487 560 36,000  Level FlightAware Transoceanic
Thu 11:05:00 PM 59.6429 -179.1937 229° Southwest 503 579 36,000  Level FlightAware Transoceanic
Thu 11:06:00 PM 59.5489 -179.4052 229° Southwest 503 579 36,000  Level FlightAware Transoceanic
Thu 11:07:00 PM 59.4545 -179.6154 228° Southwest 503 579 36,000  Level FlightAware Transoceanic
Thu 11:08:00 PM 59.3597 -179.8245 228° Southwest 503 579 36,000  Level FlightAware Transoceanic
Thu 11:09:00 PM 59.2647 179.9676 228° Southwest 503 579 36,000  Level FlightAware Transoceanic
Thu 11:10:00 PM 59.1693 179.7608 228° Southwest 503 579 36,000  Level FlightAware Transoceanic
Thu 11:11:00 PM 59.0736 179.5552 228° Southwest 503 579 36,000  Level FlightAware Transoceanic
Thu 11:12:00 PM 58.9775 179.3508 228° Southwest 503 579 36,000  Level FlightAware Transoceanic
Thu 11:13:00 PM 58.8811 179.1474 227° Southwest 503 579 36,000  Level FlightAware Transoceanic
Thu 11:14:00 PM 58.7845 178.9453 227° Southwest 503 579 36,000  Level FlightAware Transoceanic
Thu 11:15:00 PM 58.6875 178.7442 227° Southwest 503 579 36,000  Level FlightAware Transoceanic
Thu 11:16:00 PM 58.5902 178.5443 227° Southwest 503 579 36,000  Level FlightAware Transoceanic
Thu 11:17:00 PM 58.4925 178.3454 227° Southwest 503 579 36,000  Level FlightAware Transoceanic
Thu 11:18:00 PM 58.3946 178.1477 226° Southwest 503 579 36,000  Level FlightAware Transoceanic
Thu 11:18:28 PM 58.3500 178.0667 227° Southwest 519 597 36,000  Level Anchorage Center
Thu 11:19:00 PM 58.2964 177.9511 226° Southwest 503 579 36,000  Level FlightAware Transoceanic
Thu 11:20:00 PM 58.1979 177.7555 226° Southwest 503 579 36,000  Level FlightAware Transoceanic
Thu 11:21:00 PM 58.0990 177.5611 226° Southwest 503 579 36,000  Level FlightAware Transoceanic
Thu 11:22:00 PM 57.9999 177.3677 226° Southwest 503 579 36,000  Level FlightAware Transoceanic
Thu 11:23:00 PM 57.9005 177.1754 226° Southwest 503 579 36,000  Level FlightAware Transoceanic
Thu 11:24:00 PM 57.7857 176.9580 226° Southwest 519 597 36,000  Level FlightAware Transoceanic
Thu 11:25:00 PM 57.6907 176.7766 225° Southwest 519 597 36,000  Level FlightAware Transoceanic
Thu 11:26:00 PM 57.5955 176.5962 225° Southwest 519 597 36,000  Level FlightAware Transoceanic
Thu 11:27:00 PM 57.5000 176.4167 226° Southwest 519 597 36,000  Level FlightAware Transoceanic
Thu 11:27:15 PM 57.5000 176.4167 226° Southwest 535 616 36,000  Level Anchorage Center
Thu 11:28:00 PM 57.3918 176.2112 226° Southwest 519 597 36,000  Level FlightAware Transoceanic
Thu 11:29:00 PM 57.2833 176.0070 225° Southwest 519 597 36,000  Level FlightAware Transoceanic
Thu 11:30:00 PM 57.1745 175.8040 225° Southwest 519 597 36,000  Level FlightAware Transoceanic
Thu 11:31:00 PM 57.0653 175.6022 225° Southwest 519 597 36,000  Level FlightAware Transoceanic
Thu 11:32:00 PM 56.9558 175.4016 225° Southwest 519 597 36,000  Level FlightAware Transoceanic
Thu 11:33:00 PM 56.8735 175.2518 225° Southwest 535 616 36,000  Level FlightAware Transoceanic
Thu 11:34:00 PM 56.7680 175.0615 225° Southwest 535 616 36,000  Level FlightAware Transoceanic
Thu 11:35:00 PM 56.6623 174.8723 224° Southwest 535 616 36,000  Level FlightAware Transoceanic
Thu 11:36:00 PM 56.5562 174.6841 224° Southwest 535 616 36,000  Level FlightAware Transoceanic
Thu 11:37:00 PM 56.4499 174.4969 224° Southwest 535 616 36,000  Level FlightAware Transoceanic
Thu 11:38:00 PM 56.3433 174.3108 224° Southwest 535 616 36,000  Level FlightAware Transoceanic
Thu 11:39:00 PM 56.2365 174.1257 224° Southwest 535 616 36,000  Level FlightAware Transoceanic
Thu 11:40:00 PM 56.1293 173.9417 224° Southwest 535 616 36,000  Level FlightAware Transoceanic
Thu 11:41:00 PM 56.0219 173.7587 223° Southwest 535 616 36,000 1,000 Level FlightAware Transoceanic
Thu 11:41:00 PM 55.9833 173.7167 223° Southwest 530 610 37,000  Climbing Anchorage Center
Thu 11:42:00 PM 55.9142 173.5767 223° Southwest 535 616 36,000  Descending FlightAware Transoceanic
Thu 11:42:00 PM 55.9000 173.5500 228° Southwest 530 610 37,000  Climbing Anchorage Center
Thu 11:43:00 PM 55.8063 173.3957 223° Southwest 535 616 36,000  Descending FlightAware Transoceanic
Thu 11:43:00 PM 55.7833 173.3667 221° Southwest 530 610 37,000  Climbing Anchorage Center
Thu 11:44:00 PM 55.6981 173.2157 223° Southwest 535 616 36,000  Descending FlightAware Transoceanic
Thu 11:44:00 PM 55.6833 173.2000 223° Southwest 530 610 37,000  Climbing Anchorage Center
Thu 11:45:00 PM 55.5896 173.0367 223° Southwest 535 616 36,000  Descending FlightAware Transoceanic
Thu 11:45:00 PM 55.5667 173.0167 222° Southwest 530 610 37,000  Climbing Anchorage Center
Thu 11:46:00 PM 55.4808 172.8587 223° Southwest 535 616 36,000  Descending FlightAware Transoceanic
Thu 11:46:00 PM 55.4500 172.8167 224° Southwest 520 598 37,000 984 Climbing Anchorage Center
Thu 11:47:01 PM 55.3500 172.6667 220° Southwest 530 610 37,000  Level Anchorage Center
Thu 11:48:01 PM 55.2333 172.4667 224° Southwest 530 610 37,000  Level Anchorage Center
Thu 11:49:01 PM 55.1500 172.3333 222° Southwest 520 598 37,000  Level Anchorage Center
Thu 11:50:00 PM 55.0167 172.1333 221° Southwest 530 610 37,000  Level Anchorage Center
Thu 11:51:00 PM 54.9333 171.9833 226° Southwest 530 610 37,000  Level Anchorage Center
Thu 11:52:01 PM 54.8333 171.7667 231° Southwest 520 598 37,000  Level Anchorage Center
Thu 11:53:01 PM 54.7500 171.5500 236° Southwest 520 598 37,000  Level Anchorage Center
Thu 11:54:01 PM 54.6667 171.3667 232° Southwest 520 598 37,000  Level Anchorage Center
Thu 11:55:01 PM 54.5833 171.1500 236° Southwest 520 598 37,000  Level Anchorage Center
Thu 11:56:01 PM 54.5000 170.9667 232° Southwest 530 610 37,000  Level Anchorage Center
Thu 11:57:01 PM 54.4167 170.7500 237° Southwest 520 598 37,000  Level Anchorage Center
Thu 11:58:01 PM 54.3333 170.5833 229° Southwest 540 621 37,000  Level Anchorage Center
Thu 11:59:01 PM 54.2333 170.3500 234° Southwest 560 644 37,000  Level Anchorage Center
Fri 12:00:01 AM 54.1500 170.1333 237° Southwest 520 598 37,000  Level Anchorage Center
Fri 12:01:01 AM 54.0667 169.9667 230° Southwest 540 621 37,000  Level Anchorage Center
Fri 12:02:01 AM 53.9667 169.7500 232° Southwest 530 610 37,000  Level Anchorage Center
Fri 12:03:02 AM 53.9000 169.5833 236° Southwest 510 587 37,000  Level Anchorage Center
Fri 12:04:01 AM 53.8000 169.3667 232° Southwest 510 587 37,000  Level Anchorage Center
Fri 12:05:02 AM 53.7167 169.2000 230° Southwest 530 610 37,000  Level Anchorage Center
Fri 12:06:02 AM 53.6500 168.9833 243° Southwest 490 564 37,000  Level Anchorage Center
Fri 12:07:02 AM 53.6000 168.8167 243° Southwest 490 564 37,000  Level Anchorage Center
Fri 12:08:02 AM 53.5167 168.5833 239° Southwest 500 575 37,000  Level Anchorage Center
Fri 12:09:02 AM 53.4500 168.3667 243° Southwest 490 564 37,000  Level Anchorage Center
Fri 12:11:00 AM 53.3167 167.9944 240° Southwest  Level FlightAware Approximate
Fri 12:11:39 AM 53.2667 167.8500 240° Southwest 498 573 37,000  Level Anchorage Center
Fri 12:18:00 AM 52.8301 166.6391 239° Southwest 498 573 37,000  Level FlightAware Transoceanic
Fri 12:19:00 AM 52.7561 166.4396 238° Southwest 498 573 37,000  Level FlightAware Transoceanic
Fri 12:20:00 AM 52.6818 166.2409 238° Southwest 498 573 37,000  Level FlightAware Transoceanic
Fri 12:21:00 AM 52.6072 166.0428 238° Southwest 498 573 37,000  Level FlightAware Transoceanic
Fri 12:22:00 AM 52.5322 165.8454 238° Southwest 498 573 37,000  Level FlightAware Transoceanic
Fri 12:23:00 AM 52.4570 165.6486 238° Southwest 498 573 37,000  Level FlightAware Transoceanic
Fri 12:24:00 AM 52.3814 165.4526 238° Southwest 498 573 37,000  Level FlightAware Transoceanic
Fri 12:25:00 AM 52.3054 165.2572 237° Southwest 498 573 37,000  Level FlightAware Transoceanic
Fri 12:26:00 AM 52.2292 165.0624 237° Southwest 498 573 37,000  Level FlightAware Transoceanic
Fri 12:27:00 AM 52.1526 164.8684 237° Southwest 498 573 37,000  Level FlightAware Transoceanic
Fri 12:28:00 AM 52.0757 164.6750 237° Southwest 498 573 37,000  Level FlightAware Transoceanic
Fri 12:29:00 AM 51.9985 164.4823 237° Southwest 498 573 37,000  Level FlightAware Transoceanic
Fri 12:30:00 AM 51.9210 164.2902 237° Southwest 498 573 37,000  Level FlightAware Transoceanic
Fri 12:31:00 AM 51.8432 164.0988 237° Southwest 498 573 37,000  Level FlightAware Transoceanic
Fri 12:32:00 AM 51.7651 163.9081 236° Southwest 498 573 37,000  Level FlightAware Transoceanic
Fri 12:33:00 AM 51.6866 163.7180 236° Southwest 498 573 37,000  Level FlightAware Transoceanic
Fri 12:33:47 AM 51.6500 163.6500 236° Southwest 504 580 37,000  Level Anchorage Center
Fri 12:34:00 AM 51.6079 163.5286 236° Southwest 498 573 37,000  Level FlightAware Transoceanic
Fri 12:35:00 AM 51.5288 163.3399 236° Southwest 498 573 37,000  Level FlightAware Transoceanic
Fri 12:36:00 AM 51.4495 163.1518 236° Southwest 498 573 37,000  Level FlightAware Transoceanic
Fri 12:37:00 AM 51.3698 162.9643 236° Southwest 498 573 37,000  Level FlightAware Transoceanic
Fri 12:38:00 AM 51.2899 162.7775 236° Southwest 498 573 37,000  Level FlightAware Transoceanic
Fri 12:38:32 AM 51.2833 162.7500 235° Southwest 497 572 37,000  Level Anchorage Center
Fri 12:39:00 AM 51.2096 162.5914 235° Southwest 498 573 37,000  Level FlightAware Transoceanic
Fri 12:40:00 AM 51.1611 162.4939 235° Southwest 504 580 37,000  Level FlightAware Transoceanic
Fri 12:41:00 AM 51.0785 162.3036 235° Southwest 504 580 37,000  Level FlightAware Transoceanic
Fri 12:42:00 AM 50.9956 162.1140 235° Southwest 504 580 37,000  Level FlightAware Transoceanic
Fri 12:43:00 AM 50.9124 161.9251 235° Southwest 504 580 37,000  Level FlightAware Transoceanic
Fri 12:44:00 AM 50.7994 161.6519 235° Southwest 497 572 37,000  Level FlightAware Transoceanic
Fri 12:45:00 AM 50.7177 161.4711 234° Southwest 497 572 37,000  Level FlightAware Transoceanic
Fri 12:46:00 AM 50.6358 161.2909 234° Southwest 497 572 37,000  Level FlightAware Transoceanic
Fri 12:47:00 AM 50.5536 161.1113 234° Southwest 497 572 37,000  Level FlightAware Transoceanic
Fri 12:48:00 AM 50.4711 160.9324 234° Southwest 497 572 37,000  Level FlightAware Transoceanic
Fri 12:49:00 AM 50.3883 160.7541 234° Southwest 497 572 37,000  Level FlightAware Transoceanic
Fri 12:50:00 AM 50.3053 160.5764 234° Southwest 497 572 37,000  Level FlightAware Transoceanic
Fri 12:51:00 AM 50.2220 160.3994 234° Southwest 497 572 37,000  Level FlightAware Transoceanic
Fri 12:51:47 AM 50.2000 160.3833 234° Southwest 495 570 37,000  Level Anchorage Center
Fri 12:52:00 AM 50.1385 160.2230 233° Southwest 497 572 37,000  Level FlightAware Transoceanic
Fri 12:53:00 AM 50.0546 160.0471 233° Southwest 497 572 37,000  Level FlightAware Transoceanic
Fri 12:54:00 AM 49.9705 159.8719 233° Southwest 497 572 37,000  Level FlightAware Transoceanic
Fri 12:55:00 AM 49.8862 159.6974 233° Southwest 497 572 37,000  Level FlightAware Transoceanic
Fri 12:56:00 AM 49.8016 159.5234 233° Southwest 497 572 37,000  Level FlightAware Transoceanic
Fri 12:57:00 AM 49.7167 159.3500 233° Southwest 497 572 37,000  Level FlightAware Transoceanic
Fri 12:58:00 AM 49.7167 159.3500 233° Southwest 495 570 37,000  Level FlightAware Transoceanic
Fri 12:59:00 AM 49.6315 159.1761 233° Southwest 495 570 37,000  Level FlightAware Transoceanic
Fri 01:00:00 AM 49.5460 159.0029 233° Southwest 495 570 37,000  Level FlightAware Transoceanic
Fri 01:01:00 AM 49.4603 158.8303 233° Southwest 495 570 37,000  Level FlightAware Transoceanic
Fri 01:02:00 AM 49.3744 158.6582 232° Southwest 495 570 37,000  Level FlightAware Transoceanic
Fri 01:03:00 AM 49.2881 158.4868 232° Southwest 495 570 37,000  Level FlightAware Transoceanic
Fri 01:04:00 AM 49.2017 158.3160 232° Southwest 495 570 37,000  Level FlightAware Transoceanic
Fri 01:05:00 AM 49.1149 158.1457 232° Southwest 495 570 37,000  Level FlightAware Transoceanic
Fri 01:06:00 AM 49.0280 157.9761 232° Southwest 495 570 37,000  Level FlightAware Transoceanic
Fri 01:07:00 AM 48.9408 157.8071 232° Southwest 495 570 37,000  Level FlightAware Transoceanic
Fri 01:08:00 AM 48.8533 157.6386 232° Southwest 495 570 37,000  Level FlightAware Transoceanic
Fri 01:09:00 AM 48.7656 157.4707 232° Southwest 495 570 37,000  Level FlightAware Transoceanic
Fri 01:10:00 AM 48.6776 157.3034 231° Southwest 495 570 37,000  Level FlightAware Transoceanic
Fri 01:11:00 AM 48.5894 157.1367 231° Southwest 495 570 37,000  Level FlightAware Transoceanic
Fri 01:12:00 AM 48.5010 156.9706 231° Southwest 495 570 37,000  Level FlightAware Transoceanic
Fri 01:13:00 AM 48.4123 156.8051 231° Southwest 495 570 37,000  Level FlightAware Transoceanic
Fri 01:14:00 AM 48.3234 156.6401 231° Southwest 495 570 37,000  Level FlightAware Transoceanic
Fri 01:15:00 AM 48.2343 156.4757 231° Southwest 495 570 37,000  Level FlightAware Transoceanic
Fri 01:16:00 AM 48.1449 156.3119 231° Southwest 495 570 37,000  Level FlightAware Transoceanic
Fri 01:17:00 AM 48.0553 156.1487 231° Southwest 495 570 37,000  Level FlightAware Transoceanic
Fri 01:18:00 AM 47.9654 155.9860 230° Southwest 495 570 37,000  Level FlightAware Transoceanic
Fri 01:19:00 AM 47.8754 155.8239 230° Southwest 495 570 37,000  Level FlightAware Transoceanic
Fri 01:20:00 AM 47.7851 155.6624 230° Southwest 495 570 37,000  Level FlightAware Transoceanic
Fri 01:21:00 AM 47.6945 155.5014 230° Southwest 495 570 37,000  Level FlightAware Transoceanic
Fri 01:22:00 AM 47.6038 155.3409 230° Southwest 495 570 37,000  Level FlightAware Transoceanic
Fri 01:23:00 AM 47.5128 155.1811 230° Southwest 495 570 37,000  Level FlightAware Transoceanic
Fri 01:24:00 AM 47.4216 155.0218 230° Southwest 495 570 37,000  Level FlightAware Transoceanic
Fri 01:25:00 AM 47.3302 154.8630 230° Southwest 495 570 37,000  Level FlightAware Transoceanic
Fri 01:26:00 AM 47.2386 154.7048 229° Southwest 495 570 37,000  Level FlightAware Transoceanic
Fri 01:27:00 AM 47.1468 154.5471 229° Southwest 495 570 37,000  Level FlightAware Transoceanic
Fri 01:28:00 AM 47.0547 154.3900 229° Southwest 495 570 37,000  Level FlightAware Transoceanic
Fri 01:29:00 AM 46.9624 154.2334 229° Southwest 495 570 37,000  Level FlightAware Transoceanic
Fri 01:30:00 AM 46.8699 154.0774 229° Southwest 495 570 37,000  Level FlightAware Transoceanic
Fri 01:31:00 AM 46.7772 153.9219 229° Southwest 495 570 37,000  Level FlightAware Transoceanic
Fri 01:32:00 AM 46.6843 153.7669 229° Southwest 495 570 37,000  Level FlightAware Transoceanic
Fri 01:33:00 AM 46.5912 153.6125 229° Southwest 495 570 37,000  Level FlightAware Transoceanic
Fri 01:34:00 AM 46.4979 153.4586 229° Southwest 495 570 37,000  Level FlightAware Transoceanic
Fri 01:35:00 AM 46.4043 153.3052 228° Southwest 495 570 37,000  Level FlightAware Transoceanic
Fri 01:36:00 AM 46.3106 153.1523 228° Southwest 495 570 37,000  Level FlightAware Transoceanic
Fri 01:37:00 AM 46.2247 153.0130 228° Southwest  Level FlightAware Approximate
Fri 01:38:00 AM 46.1386 152.8741 228° Southwest  Level FlightAware Approximate
Fri 01:39:00 AM 46.1462 152.8877 228° Southwest  Level FlightAware Approximate
Fri 01:40:00 AM 46.0593 152.7499 228° Southwest  Level FlightAware Approximate
Fri 01:41:00 AM 45.9723 152.6126 228° Southwest  Level FlightAware Approximate
Fri 01:42:00 AM 45.8852 152.4758 228° Southwest  Level FlightAware Approximate
Fri 01:43:00 AM 45.7979 152.3393 227° Southwest  Level FlightAware Approximate
Fri 01:44:00 AM 45.7104 152.2033 227° Southwest  Level FlightAware Approximate
Fri 01:45:00 AM 45.6227 152.0677 227° Southwest  Level FlightAware Approximate
Fri 01:46:00 AM 45.5351 151.9329 227° Southwest  Level FlightAware Approximate
Fri 01:47:00 AM 45.4474 151.7985 227° Southwest  Level FlightAware Approximate
Fri 01:48:00 AM 45.3595 151.6646 227° Southwest  Level FlightAware Approximate
Fri 01:49:00 AM 45.2715 151.5310 227° Southwest  Level FlightAware Approximate
Fri 01:50:00 AM 45.1833 151.3979 227° Southwest  Level FlightAware Approximate
Fri 01:51:00 AM 45.0949 151.2651 227° Southwest  Level FlightAware Approximate
Fri 01:52:00 AM 45.0064 151.1328 227° Southwest  Level FlightAware Approximate
Fri 01:53:00 AM 44.9177 151.0009 227° Southwest  Level FlightAware Approximate
Fri 01:54:00 AM 44.8289 150.8694 226° Southwest  Level FlightAware Approximate
Fri 01:55:00 AM 44.7399 150.7383 226° Southwest  Level FlightAware Approximate
Fri 01:56:00 AM 44.6508 150.6076 226° Southwest  Level FlightAware Approximate
Fri 01:57:00 AM 44.5616 150.4772 226° Southwest  Level FlightAware Approximate
Fri 01:58:00 AM 44.4723 150.3472 226° Southwest  Level FlightAware Approximate
Fri 01:59:00 AM 44.3829 150.2175 226° Southwest  Level FlightAware Approximate
Fri 02:00:00 AM 44.2933 150.0882 226° Southwest  Level FlightAware Approximate
Fri 02:01:00 AM 44.2035 149.9594 226° Southwest  Level FlightAware Approximate
Fri 02:02:00 AM 44.1137 149.8309 226° Southwest  Level FlightAware Approximate
Fri 02:03:00 AM 44.0237 149.7028 226° Southwest  Level FlightAware Approximate
Fri 02:04:00 AM 43.9335 149.5751 226° Southwest  Level FlightAware Approximate
Fri 02:05:00 AM 43.8432 149.4478 226° Southwest  Level FlightAware Approximate
Fri 02:06:00 AM 43.7527 149.3208 225° Southwest  Level FlightAware Approximate
Fri 02:07:00 AM 43.6622 149.1943 225° Southwest  Level FlightAware Approximate
Fri 02:08:00 AM 43.5714 149.0681 225° Southwest  Level FlightAware Approximate
Fri 02:08:23 AM 43.5460 149.0330 225° Southwest 460 529 37,000  Level FlightAware ADS-B
Fri 02:09:00 AM 43.4806 148.9424 225° Southwest  Level FlightAware Approximate
Fri 02:09:28 AM 43.4590 148.9120 225° Southwest 461 531 37,000  Level FlightAware ADS-B
Fri 02:10:03 AM 43.3960 148.8250 225° Southwest 461 531 37,000  Level FlightAware ADS-B
Fri 02:10:48 AM 43.3260 148.7290 225° Southwest 460 529 37,000  Level FlightAware ADS-B
Fri 02:10:58 AM 43.3100 148.7060 226° Southwest 460 529 37,000  Level FlightAware ADS-B
Fri 02:12:13 AM 43.1960 148.5520 225° Southwest 456 525 37,000  Level FlightAware ADS-B
Fri 02:12:58 AM 43.1270 148.4580 225° Southwest 460 529 37,000  Level FlightAware ADS-B
Fri 02:13:38 AM 43.0660 148.3760 224° Southwest 458 527 37,000  Level FlightAware ADS-B
Fri 02:14:18 AM 43.0060 148.2940 225° Southwest 456 525 37,000  Level FlightAware ADS-B
Fri 02:15:03 AM 42.9390 148.2040 225° Southwest 454 522 37,000  Level FlightAware ADS-B
Fri 02:15:48 AM 42.8730 148.1150 225° Southwest 451 519 37,000  Level FlightAware ADS-B
Fri 02:16:28 AM 42.8130 148.0340 225° Southwest 451 519 37,000  Level FlightAware ADS-B
Fri 02:17:08 AM 42.7530 147.9540 224° Southwest 450 518 37,000  Level FlightAware ADS-B
Fri 02:17:43 AM 42.7010 147.8850 224° Southwest 449 517 37,000  Level FlightAware ADS-B
Fri 02:18:28 AM 42.6350 147.7980 224° Southwest 447 514 37,000  Level FlightAware ADS-B
Fri 02:19:08 AM 42.5740 147.7180 224° Southwest 446 513 37,000  Level FlightAware ADS-B
Fri 02:19:43 AM 42.5230 147.6500 225° Southwest 446 513 37,000  Level FlightAware ADS-B
Fri 02:20:23 AM 42.4640 147.5720 224° Southwest 446 513 37,000  Level FlightAware ADS-B
Fri 02:21:08 AM 42.3970 147.4850 224° Southwest 446 513 37,000  Level FlightAware ADS-B
Fri 02:21:48 AM 42.3380 147.4070 224° Southwest 446 513 37,000  Level FlightAware ADS-B
Fri 02:22:33 AM 42.2710 147.3190 224° Southwest 447 514 37,000  Level FlightAware ADS-B
Fri 02:23:13 AM 42.2120 147.2420 224° Southwest 447 514 37,000  Level FlightAware ADS-B
Fri 02:23:53 AM 42.1520 147.1640 224° Southwest 449 517 37,000  Level FlightAware ADS-B
Fri 02:24:55 AM 42.0580 147.0440 223° Southwest 450 518 37,000  Level FlightAware ADS-B
Fri 02:25:40 AM 41.9910 146.9560 224° Southwest 450 518 37,000  Level FlightAware ADS-B
Fri 02:26:20 AM 41.9310 146.8790 224° Southwest 451 519 37,000  Level FlightAware ADS-B
Fri 02:27:05 AM 41.8630 146.7920 224° Southwest 447 514 37,000  Level FlightAware ADS-B
Fri 02:27:45 AM 41.8020 146.7140 224° Southwest 451 519 37,000  Level FlightAware ADS-B
Fri 02:28:30 AM 41.7330 146.6250 224° Southwest 452 520 37,000  Level FlightAware ADS-B
Fri 02:29:10 AM 41.6720 146.5470 224° Southwest 453 521 37,000  Level FlightAware ADS-B
Fri 02:29:45 AM 41.6180 146.4790 223° Southwest 454 522 37,000  Level FlightAware ADS-B
Fri 02:30:30 AM 41.5480 146.3900 224° Southwest 464 534 37,000  Level FlightAware ADS-B
Fri 02:31:10 AM 41.4860 146.3110 224° Southwest 466 536 37,000  Level FlightAware ADS-B
Fri 02:31:47 AM 41.4270 146.2380 223° Southwest 469 540 37,000  Level FlightAware ADS-B
Fri 02:32:27 AM 41.3640 146.1590 223° Southwest 466 536 37,000  Level FlightAware ADS-B
Fri 02:33:07 AM 41.3050 146.0850 223° Southwest 468 539 37,000  Level FlightAware ADS-B
Fri 02:33:52 AM 41.2290 145.9890 224° Southwest 467 537 37,000  Level FlightAware ADS-B
Fri 02:34:32 AM 41.1660 145.9110 223° Southwest 468 539 37,000  Level FlightAware ADS-B
Fri 02:35:18 AM 41.0970 145.8260 223° Southwest 470 541 37,000  Level FlightAware ADS-B
Fri 02:35:49 AM 41.0430 145.7570 224° Southwest 480 552 37,000  Level FlightAware ADS-B
Fri 02:36:39 AM 40.9620 145.6590 222° Southwest 481 554 37,000  Level FlightAware ADS-B
Fri 02:37:19 AM 40.8940 145.5740 223° Southwest 482 555 37,000  Level FlightAware ADS-B
Fri 02:38:01 AM 40.8250 145.4900 223° Southwest 484 557 37,000  Level FlightAware ADS-B
Fri 02:38:46 AM 40.7560 145.4060 223° Southwest 483 556 37,000  Level FlightAware ADS-B
Fri 02:39:21 AM 40.6970 145.3330 223° Southwest 483 556 37,000  Level FlightAware ADS-B
Fri 02:40:01 AM 40.6410 145.2660 222° Southwest 483 556 37,000  Level FlightAware ADS-B
Fri 02:40:46 AM 40.5570 145.1620 223° Southwest 482 555 37,000  Level FlightAware ADS-B
Fri 02:41:34 AM 40.4880 145.0810 222° Southwest 482 555 37,000  Level FlightAware ADS-B
Fri 02:42:22 AM 40.4040 144.9800 222° Southwest 482 555 37,000  Level FlightAware ADS-B
Fri 02:43:08 AM 40.3260 144.8840 223° Southwest 484 557 37,000  Level FlightAware ADS-B
Fri 02:43:47 AM 40.2710 144.8190 222° Southwest 484 557 37,000  Level FlightAware ADS-B
Fri 02:44:27 AM 40.2020 144.7360 223° Southwest 484 557 37,000  Level FlightAware ADS-B
Fri 02:45:03 AM 40.1510 144.6760 222° Southwest 484 557 37,000  Level FlightAware ADS-B
Fri 02:45:39 AM 40.1000 144.6160 222° Southwest 484 557 37,000  Level FlightAware ADS-B
Fri 02:46:27 AM 40.0320 144.5360 222° Southwest 484 557 37,000  Level FlightAware ADS-B
Fri 02:47:04 AM 39.9800 144.4750 222° Southwest 484 557 37,000  Level FlightAware ADS-B
Fri 02:47:40 AM 39.9290 144.4150 222° Southwest 484 557 37,000  Level FlightAware ADS-B
Fri 02:48:28 AM 39.8610 144.3350 222° Southwest 484 557 37,000  Level FlightAware ADS-B
Fri 02:49:04 AM 39.8100 144.2750 222° Southwest 484 557 37,000  Level FlightAware ADS-B
Fri 02:49:48 AM 39.6500 144.0830 223° Southwest 494 568 37,000  Level FlightAware ADS-B
Fri 02:50:27 AM 39.5810 144.0040 221° Southwest 495 570 37,000  Level FlightAware ADS-B
Fri 02:51:13 AM 39.5040 143.9140 222° Southwest 498 573 37,000  Level FlightAware ADS-B
Fri 02:51:52 AM 39.4360 143.8350 222° Southwest 499 574 37,000  Level FlightAware ADS-B
Fri 02:52:27 AM 39.3750 143.7650 222° Southwest 500 575 37,000  Level FlightAware ADS-B
Fri 02:53:13 AM 39.2980 143.6750 222° Southwest 501 577 37,000  Level FlightAware ADS-B
Fri 02:53:53 AM 39.2300 143.5970 222° Southwest 496 571 37,000  Level FlightAware ADS-B
Fri 02:54:38 AM 39.1510 143.5080 221° Southwest 497 572 37,000  Level FlightAware ADS-B
Fri 02:55:18 AM 39.0800 143.4260 222° Southwest 498 573 37,000  Level FlightAware ADS-B
Fri 02:55:58 AM 39.0120 143.3480 222° Southwest 500 575 37,000  Level FlightAware ADS-B
Fri 02:56:43 AM 38.9270 143.2570 220° Southwest 518 596 37,000  Level FlightAware ADS-B
Fri 02:57:23 AM 38.8350 143.2180 198° South 547 629 37,000  Level FlightAware ADS-B
Fri 02:57:57 AM 38.7460 143.2050 186° South 550 633 37,000  Level FlightAware ADS-B
Fri 02:58:43 AM 38.6340 143.1900 186° South 549 632 37,000  Level FlightAware ADS-B
Fri 02:59:23 AM 38.5330 143.1760 186° South 551 634 37,000  Level FlightAware ADS-B
Fri 03:00:46 AM 38.3200 143.1470 186° South 546 628 37,000  Level FlightAware ADS-B
Fri 03:01:26 AM 38.2210 143.1340 186° South 537 618 37,000  Level FlightAware ADS-B
Fri 03:02:11 AM 38.1090 143.1180 186° South 521 600 37,000  Level FlightAware ADS-B
Fri 03:02:51 AM 38.0120 143.1040 186° South 519 597 37,000  Level FlightAware ADS-B
Fri 03:03:31 AM 37.9160 143.0910 186° South 518 596 37,000  Level FlightAware ADS-B
Fri 03:04:16 AM 37.8060 143.0760 186° South 517 595 37,000  Level FlightAware ADS-B
Fri 03:04:56 AM 37.7100 143.0630 186° South 515 593 37,000  Level FlightAware ADS-B
Fri 03:05:41 AM 37.6010 143.0480 186° South 516 594 37,000  Level FlightAware ADS-B
Fri 03:06:21 AM 37.5060 143.0350 186° South 517 595 37,000  Level FlightAware ADS-B
Fri 03:06:56 AM 37.4190 143.0240 186° South 517 595 37,000  Level FlightAware ADS-B
Fri 03:07:41 AM 37.3130 142.9960 192° South 511 588 37,000  Level FlightAware ADS-B
Fri 03:08:21 AM 37.2240 142.9540 201° Southwest 516 594 37,000  Level FlightAware ADS-B
Fri 03:09:02 AM 37.1370 142.9100 202° Southwest 508 585 37,000  Level FlightAware ADS-B
Fri 03:09:46 AM 37.0360 142.8580 202° Southwest 517 595 37,000  Level FlightAware ADS-B
Fri 03:10:31 AM 36.9350 142.8070 202° Southwest 517 595 37,000  Level FlightAware ADS-B
Fri 03:11:11 AM 36.8460 142.7620 202° Southwest 518 596 37,000  Level FlightAware ADS-B
Fri 03:11:41 AM 36.7800 142.7290 202° Southwest 517 595 37,000  Level FlightAware ADS-B
Fri 03:12:26 AM 36.6800 142.6790 202° Southwest 517 595 37,000  Level FlightAware ADS-B
Fri 03:13:10 AM 36.5910 142.6330 203° Southwest 509 586 37,000 -600 Level FlightAware ADS-B
Fri 03:13:46 AM 36.5070 142.5800 207° Southwest 514 592 36,200 -2,211 Descending FlightAware ADS-B
Fri 03:14:26 AM 36.4230 142.5210 209° Southwest 517 595 34,200 -2,894 Descending FlightAware ADS-B
Fri 03:15:11 AM 36.3290 142.4550 209° Southwest 513 590 32,100 -2,675 Descending FlightAware ADS-B
Fri 03:15:49 AM 36.2570 142.4050 209° Southwest 497 572 30,500 -2,475 Descending FlightAware ADS-B
Fri 03:16:31 AM 36.1690 142.3440 209° Southwest 479 551 28,800 -2,429 Descending FlightAware ADS-B
Fri 03:17:13 AM 36.0860 142.2870 209° Southwest 464 534 27,100 -2,296 Descending FlightAware ADS-B
Fri 03:17:52 AM 36.0170 142.2390 209° Southwest 458 527 25,700 -2,240 Descending FlightAware ADS-B
Fri 03:18:28 AM 35.9530 142.1950 209° Southwest 447 514 24,300 -2,296 Descending FlightAware ADS-B
Fri 03:19:13 AM 35.8710 142.1390 209° Southwest 421 484 22,600 -2,000 Descending FlightAware ADS-B
Fri 03:19:55 AM 35.8130 142.1000 209° Southwest 401 461 21,400 -1,548 Descending FlightAware ADS-B
Fri 03:20:46 AM 35.7640 141.9800 243° Southwest 412 474 20,200 -907 Descending FlightAware ADS-B
Fri 03:21:21 AM 35.7700 141.8980 275° West 411 473 20,100 -214 Descending FlightAware ADS-B
Fri 03:22:10 AM 35.7790 141.7920 276° West 409 471 19,900 -337 Descending FlightAware ADS-B
Fri 03:22:50 AM 35.7870 141.6990 276° West 407 468 19,600 -395 Descending FlightAware ADS-B
Fri 03:23:26 AM 35.7930 141.6210 275° West 406 467 19,400 -918 Descending FlightAware ADS-B
Fri 03:24:15 AM 35.8020 141.5010 275° West 380 437 18,300 -1,685 Descending FlightAware ADS-B
Fri 03:24:55 AM 35.8080 141.4200 275° West 368 423 16,900 -2,240 Descending FlightAware ADS-B
Fri 03:25:30 AM 35.7990 141.3440 262° West 371 427 15,500 -2,308 Descending FlightAware ADS-B
Fri 03:26:13 AM 35.7640 141.2700 240° Southwest 372 428 13,900 -2,175 Descending FlightAware ADS-B
Fri 03:26:50 AM 35.7310 141.2010 240° Southwest 362 417 12,600 -2,000 Descending FlightAware ADS-B
Fri 03:27:28 AM 35.7020 141.1410 239° Southwest 359 413 11,400 -1,610 Descending FlightAware ADS-B
Fri 03:28:12 AM 35.6630 141.0580 240° Southwest 340 391 10,400 -847 Descending FlightAware ADS-B
Fri 03:28:53 AM 35.6320 140.9930 240° Southwest 292 336 10,200 -783 Descending FlightAware ADS-B
Fri 03:29:21 AM 35.6120 140.9520 239° Southwest 290 334 9,500 -1,585 Descending FlightAware ADS-B
Fri 03:29:46 AM 35.5950 140.9160 240° Southwest 289 333 8,800 -1,467 Descending FlightAware ADS-B
Fri 03:30:06 AM 35.5800 140.8860 238° Southwest 287 330 8,400 -1,200 Descending FlightAware ADS-B
Fri 03:30:31 AM 35.5690 140.8520 248° West 276 318 7,900 -1,071 Descending FlightAware ADS-B
Fri 03:31:02 AM 35.5610 140.8060 258° West 266 306 7,400 -1,071 Descending FlightAware ADS-B
Fri 03:31:27 AM 35.5550 140.7690 259° West 260 299 6,900 -980 Descending FlightAware ADS-B
Fri 03:31:51 AM 35.5480 140.7320 257° West 249 287 6,600 -915 Descending FlightAware ADS-B
Fri 03:32:26 AM 35.5400 140.6860 258° West 238 274 6,000 -844 Descending FlightAware ADS-B
Fri 03:32:55 AM 35.5340 140.6490 259° West 223 257 5,700 -923 Descending FlightAware ADS-B
Fri 03:33:18 AM 35.5290 140.6190 258° West 216 249 5,200 -1,038 Descending FlightAware ADS-B
Fri 03:33:47 AM 35.5320 140.5880 277° West 197 227 4,800 -1,000 Descending FlightAware ADS-B
Fri 03:34:12 AM 35.5360 140.5620 281° West 186 214 4,300 -712 Descending FlightAware ADS-B
Fri 03:34:46 AM 35.5520 140.5290 301° West 186 214 4,100 -261 Descending FlightAware ADS-B
Fri 03:34:58 AM 35.5600 140.5220 325° Northwest 186 214 4,100 -214 Level FlightAware ADS-B
Fri 03:35:14 AM 35.5730 140.5140 333° Northwest 187 215 4,000 -682 Descending FlightAware ADS-B
Fri 03:35:42 AM 35.5930 140.5000 330° Northwest 168 193 3,600 -857 Descending FlightAware ADS-B
Fri 03:36:10 AM 35.6110 140.4860 328° Northwest 163 188 3,200 -857 Descending FlightAware ADS-B
Fri 03:36:38 AM 35.6300 140.4730 331° Northwest 165 190 2,800 -889 Descending FlightAware ADS-B
Fri 03:37:04 AM 35.6470 140.4600 328° Northwest 165 190 2,400 -882 Descending FlightAware ADS-B
Fri 03:37:46 AM 35.6740 140.4410 330° Northwest 158 182 1,800 -857 Descending FlightAware ADS-B
Fri 03:38:14 AM 35.6920 140.4280 330° Northwest 159 183 1,400 -764 Descending FlightAware ADS-B
Fri 03:38:41 AM 35.7090 140.4160 330° Northwest 151 174 1,100 -720 Descending FlightAware ADS-B
Fri 03:39:04 AM 35.7230 140.4050 327° Northwest 151 174 800 -792 Descending FlightAware ADS-B
Fri 03:39:34 AM 35.7380 140.3950 332° Northwest 154 177 400 -414 Descending FlightAware ADS-B
Fri 03:40:02 AM 35.7530 140.3840 329° Northwest 153 176 400  Level FlightAware ADS-B
Fri 03:42:00 AM 35.7500 140.3833 253° West  Level FlightAware Approximate
Fri 03:43:00 AM 35.7647 140.3864 253° West  Level Estimated

Login

Don't have an account? Register now (free) for customized features, flight alerts, and more!